<?xml version="1.0" encoding="UTF-8" standalone="no" ?>
<gpx xmlns="http://www.topografix.com/GPX/1/1" xmlns:xsi="http://www.w3.org/2001/XMLSchema-instance" xsi:schemaLocation="http://www.topografix.com/GPX/1/1 http://www.topografix.com/GPX/1/1/gpx.xsd" version="1.1" creator="VisuGPX - https://www.visugpx.com">
  <metadata>
    <name>VTT_Gourette_2015_10_31</name>
    <desc><![CDATA[VTT_Gourette_2015_10_31.
]]></desc>
  </metadata>
  <trk>
    <name><![CDATA[2015-10-31 16:38:49]]></name>
    <trkseg>
      <trkpt lat="42.96001" lon="-0.33338">
        <ele>1343.58</ele>
        <time>2015-10-31T13:00:22Z</time>
      </trkpt>
      <trkpt lat="42.96004" lon="-0.33343">
        <ele>1345.02</ele>
        <time>2015-10-31T13:00:46Z</time>
      </trkpt>
      <trkpt lat="42.96004" lon="-0.33343">
        <ele>1344.06</ele>
        <time>2015-10-31T13:00:50Z</time>
      </trkpt>
      <trkpt lat="42.96009" lon="-0.33337">
        <ele>1340.22</ele>
        <time>2015-10-31T13:01:05Z</time>
      </trkpt>
      <trkpt lat="42.96011" lon="-0.3333">
        <ele>1340.7</ele>
        <time>2015-10-31T13:01:27Z</time>
      </trkpt>
      <trkpt lat="42.96008" lon="-0.33333">
        <ele>1342.62</ele>
        <time>2015-10-31T13:01:32Z</time>
      </trkpt>
      <trkpt lat="42.96003" lon="-0.33333">
        <ele>1343.58</ele>
        <time>2015-10-31T13:01:44Z</time>
      </trkpt>
      <trkpt lat="42.96001" lon="-0.33335">
        <ele>1347.91</ele>
        <time>2015-10-31T13:02:01Z</time>
      </trkpt>
      <trkpt lat="42.96004" lon="-0.33335">
        <ele>1346.46</ele>
        <time>2015-10-31T13:02:18Z</time>
      </trkpt>
      <trkpt lat="42.96005" lon="-0.33335">
        <ele>1345.98</ele>
        <time>2015-10-31T13:02:19Z</time>
      </trkpt>
      <trkpt lat="42.96001" lon="-0.33325">
        <ele>1345.02</ele>
        <time>2015-10-31T13:02:26Z</time>
      </trkpt>
      <trkpt lat="42.9598" lon="-0.33314">
        <ele>1344.54</ele>
        <time>2015-10-31T13:02:38Z</time>
      </trkpt>
      <trkpt lat="42.95951" lon="-0.33302">
        <ele>1345.5</ele>
        <time>2015-10-31T13:02:53Z</time>
      </trkpt>
      <trkpt lat="42.95924" lon="-0.33295">
        <ele>1348.39</ele>
        <time>2015-10-31T13:03:05Z</time>
      </trkpt>
      <trkpt lat="42.9588" lon="-0.333">
        <ele>1351.75</ele>
        <time>2015-10-31T13:03:21Z</time>
      </trkpt>
      <trkpt lat="42.95835" lon="-0.33295">
        <ele>1353.67</ele>
        <time>2015-10-31T13:03:36Z</time>
      </trkpt>
      <trkpt lat="42.95803" lon="-0.33262">
        <ele>1354.63</ele>
        <time>2015-10-31T13:03:51Z</time>
      </trkpt>
      <trkpt lat="42.95776" lon="-0.33291">
        <ele>1354.63</ele>
        <time>2015-10-31T13:04:00Z</time>
      </trkpt>
      <trkpt lat="42.95769" lon="-0.33298">
        <ele>1354.15</ele>
        <time>2015-10-31T13:04:02Z</time>
      </trkpt>
      <trkpt lat="42.95751" lon="-0.33338">
        <ele>1355.12</ele>
        <time>2015-10-31T13:04:13Z</time>
      </trkpt>
      <trkpt lat="42.95744" lon="-0.33362">
        <ele>1355.6</ele>
        <time>2015-10-31T13:04:20Z</time>
      </trkpt>
      <trkpt lat="42.95719" lon="-0.33339">
        <ele>1359.44</ele>
        <time>2015-10-31T13:04:33Z</time>
      </trkpt>
      <trkpt lat="42.95711" lon="-0.33326">
        <ele>1360.4</ele>
        <time>2015-10-31T13:04:38Z</time>
      </trkpt>
      <trkpt lat="42.95701" lon="-0.33334">
        <ele>1358.96</ele>
        <time>2015-10-31T13:04:43Z</time>
      </trkpt>
      <trkpt lat="42.95706" lon="-0.33391">
        <ele>1358.48</ele>
        <time>2015-10-31T13:04:57Z</time>
      </trkpt>
      <trkpt lat="42.95706" lon="-0.33452">
        <ele>1358.96</ele>
        <time>2015-10-31T13:05:13Z</time>
      </trkpt>
      <trkpt lat="42.95705" lon="-0.33505">
        <ele>1364.25</ele>
        <time>2015-10-31T13:05:29Z</time>
      </trkpt>
      <trkpt lat="42.95706" lon="-0.33517">
        <ele>1364.73</ele>
        <time>2015-10-31T13:05:34Z</time>
      </trkpt>
      <trkpt lat="42.95706" lon="-0.3352">
        <ele>1364.73</ele>
        <time>2015-10-31T13:05:36Z</time>
      </trkpt>
      <trkpt lat="42.95705" lon="-0.33507">
        <ele>1364.73</ele>
        <time>2015-10-31T13:05:44Z</time>
      </trkpt>
      <trkpt lat="42.95704" lon="-0.33483">
        <ele>1363.29</ele>
        <time>2015-10-31T13:05:49Z</time>
      </trkpt>
      <trkpt lat="42.95705" lon="-0.33384">
        <ele>1357.52</ele>
        <time>2015-10-31T13:06:02Z</time>
      </trkpt>
      <trkpt lat="42.957" lon="-0.33354">
        <ele>1357.04</ele>
        <time>2015-10-31T13:06:06Z</time>
      </trkpt>
      <trkpt lat="42.95698" lon="-0.33316">
        <ele>1356.56</ele>
        <time>2015-10-31T13:06:13Z</time>
      </trkpt>
      <trkpt lat="42.95684" lon="-0.33293">
        <ele>1357.04</ele>
        <time>2015-10-31T13:06:23Z</time>
      </trkpt>
      <trkpt lat="42.95682" lon="-0.33297">
        <ele>1357.04</ele>
        <time>2015-10-31T13:06:25Z</time>
      </trkpt>
      <trkpt lat="42.95668" lon="-0.33291">
        <ele>1359.92</ele>
        <time>2015-10-31T13:06:34Z</time>
      </trkpt>
      <trkpt lat="42.95666" lon="-0.33295">
        <ele>1360.4</ele>
        <time>2015-10-31T13:06:36Z</time>
      </trkpt>
      <trkpt lat="42.95656" lon="-0.33348">
        <ele>1364.25</ele>
        <time>2015-10-31T13:06:53Z</time>
      </trkpt>
      <trkpt lat="42.95673" lon="-0.33408">
        <ele>1366.65</ele>
        <time>2015-10-31T13:07:11Z</time>
      </trkpt>
      <trkpt lat="42.95678" lon="-0.33476">
        <ele>1369.54</ele>
        <time>2015-10-31T13:07:29Z</time>
      </trkpt>
      <trkpt lat="42.95676" lon="-0.33535">
        <ele>1375.3</ele>
        <time>2015-10-31T13:07:46Z</time>
      </trkpt>
      <trkpt lat="42.95667" lon="-0.33597">
        <ele>1385.4</ele>
        <time>2015-10-31T13:08:03Z</time>
      </trkpt>
      <trkpt lat="42.95676" lon="-0.33651">
        <ele>1386.36</ele>
        <time>2015-10-31T13:08:18Z</time>
      </trkpt>
      <trkpt lat="42.95705" lon="-0.33698">
        <ele>1384.92</ele>
        <time>2015-10-31T13:08:36Z</time>
      </trkpt>
      <trkpt lat="42.95734" lon="-0.33725">
        <ele>1388.28</ele>
        <time>2015-10-31T13:08:52Z</time>
      </trkpt>
      <trkpt lat="42.9576" lon="-0.33749">
        <ele>1393.57</ele>
        <time>2015-10-31T13:09:07Z</time>
      </trkpt>
      <trkpt lat="42.95797" lon="-0.33784">
        <ele>1396.93</ele>
        <time>2015-10-31T13:09:27Z</time>
      </trkpt>
      <trkpt lat="42.95825" lon="-0.3381">
        <ele>1400.78</ele>
        <time>2015-10-31T13:09:42Z</time>
      </trkpt>
      <trkpt lat="42.95843" lon="-0.33849">
        <ele>1401.74</ele>
        <time>2015-10-31T13:09:57Z</time>
      </trkpt>
      <trkpt lat="42.95858" lon="-0.33886">
        <ele>1407.51</ele>
        <time>2015-10-31T13:10:11Z</time>
      </trkpt>
      <trkpt lat="42.95883" lon="-0.33935">
        <ele>1411.83</ele>
        <time>2015-10-31T13:10:31Z</time>
      </trkpt>
      <trkpt lat="42.95908" lon="-0.33967">
        <ele>1413.28</ele>
        <time>2015-10-31T13:10:47Z</time>
      </trkpt>
      <trkpt lat="42.95919" lon="-0.34005">
        <ele>1416.64</ele>
        <time>2015-10-31T13:11:01Z</time>
      </trkpt>
      <trkpt lat="42.95913" lon="-0.34055">
        <ele>1423.85</ele>
        <time>2015-10-31T13:11:18Z</time>
      </trkpt>
      <trkpt lat="42.95905" lon="-0.34118">
        <ele>1435.39</ele>
        <time>2015-10-31T13:11:39Z</time>
      </trkpt>
      <trkpt lat="42.95903" lon="-0.34121">
        <ele>1435.87</ele>
        <time>2015-10-31T13:11:40Z</time>
      </trkpt>
      <trkpt lat="42.95896" lon="-0.34122">
        <ele>1434.42</ele>
        <time>2015-10-31T13:11:47Z</time>
      </trkpt>
      <trkpt lat="42.95893" lon="-0.34078">
        <ele>1428.18</ele>
        <time>2015-10-31T13:12:03Z</time>
      </trkpt>
      <trkpt lat="42.95887" lon="-0.34032">
        <ele>1427.21</ele>
        <time>2015-10-31T13:12:19Z</time>
      </trkpt>
      <trkpt lat="42.95869" lon="-0.33994">
        <ele>1432.02</ele>
        <time>2015-10-31T13:12:38Z</time>
      </trkpt>
      <trkpt lat="42.95843" lon="-0.33979">
        <ele>1436.35</ele>
        <time>2015-10-31T13:12:55Z</time>
      </trkpt>
      <trkpt lat="42.95816" lon="-0.33964">
        <ele>1444.04</ele>
        <time>2015-10-31T13:13:13Z</time>
      </trkpt>
      <trkpt lat="42.95794" lon="-0.33947">
        <ele>1451.73</ele>
        <time>2015-10-31T13:13:29Z</time>
      </trkpt>
      <trkpt lat="42.95773" lon="-0.33922">
        <ele>1457.5</ele>
        <time>2015-10-31T13:13:45Z</time>
      </trkpt>
      <trkpt lat="42.9575" lon="-0.33893">
        <ele>1462.78</ele>
        <time>2015-10-31T13:14:03Z</time>
      </trkpt>
      <trkpt lat="42.95726" lon="-0.33873">
        <ele>1465.19</ele>
        <time>2015-10-31T13:14:18Z</time>
      </trkpt>
      <trkpt lat="42.95702" lon="-0.33851">
        <ele>1467.11</ele>
        <time>2015-10-31T13:14:33Z</time>
      </trkpt>
      <trkpt lat="42.95664" lon="-0.33825">
        <ele>1467.11</ele>
        <time>2015-10-31T13:14:50Z</time>
      </trkpt>
      <trkpt lat="42.95625" lon="-0.33814">
        <ele>1471.92</ele>
        <time>2015-10-31T13:15:07Z</time>
      </trkpt>
      <trkpt lat="42.9559" lon="-0.33824">
        <ele>1481.53</ele>
        <time>2015-10-31T13:15:23Z</time>
      </trkpt>
      <trkpt lat="42.9556" lon="-0.3384">
        <ele>1492.58</ele>
        <time>2015-10-31T13:15:37Z</time>
      </trkpt>
      <trkpt lat="42.95518" lon="-0.3385">
        <ele>1500.76</ele>
        <time>2015-10-31T13:15:56Z</time>
      </trkpt>
      <trkpt lat="42.95492" lon="-0.33824">
        <ele>1491.14</ele>
        <time>2015-10-31T13:16:12Z</time>
      </trkpt>
      <trkpt lat="42.95462" lon="-0.33805">
        <ele>1483.93</ele>
        <time>2015-10-31T13:16:29Z</time>
      </trkpt>
      <trkpt lat="42.95444" lon="-0.3383">
        <ele>1484.89</ele>
        <time>2015-10-31T13:16:45Z</time>
      </trkpt>
      <trkpt lat="42.95426" lon="-0.33862">
        <ele>1484.89</ele>
        <time>2015-10-31T13:17:01Z</time>
      </trkpt>
      <trkpt lat="42.95411" lon="-0.33905">
        <ele>1485.85</ele>
        <time>2015-10-31T13:17:23Z</time>
      </trkpt>
      <trkpt lat="42.95406" lon="-0.33944">
        <ele>1490.18</ele>
        <time>2015-10-31T13:17:43Z</time>
      </trkpt>
      <trkpt lat="42.95395" lon="-0.33965">
        <ele>1493.55</ele>
        <time>2015-10-31T13:17:57Z</time>
      </trkpt>
      <trkpt lat="42.95376" lon="-0.33969">
        <ele>1496.43</ele>
        <time>2015-10-31T13:18:12Z</time>
      </trkpt>
      <trkpt lat="42.95366" lon="-0.33952">
        <ele>1500.27</ele>
        <time>2015-10-31T13:18:27Z</time>
      </trkpt>
      <trkpt lat="42.95363" lon="-0.33937">
        <ele>1504.12</ele>
        <time>2015-10-31T13:18:35Z</time>
      </trkpt>
      <trkpt lat="42.95361" lon="-0.33929">
        <ele>1506.04</ele>
        <time>2015-10-31T13:18:39Z</time>
      </trkpt>
      <trkpt lat="42.95351" lon="-0.33895">
        <ele>1511.33</ele>
        <time>2015-10-31T13:18:57Z</time>
      </trkpt>
      <trkpt lat="42.95343" lon="-0.33862">
        <ele>1513.73</ele>
        <time>2015-10-31T13:19:15Z</time>
      </trkpt>
      <trkpt lat="42.9534" lon="-0.33845">
        <ele>1515.18</ele>
        <time>2015-10-31T13:19:25Z</time>
      </trkpt>
      <trkpt lat="42.95343" lon="-0.33833">
        <ele>1516.14</ele>
        <time>2015-10-31T13:19:31Z</time>
      </trkpt>
      <trkpt lat="42.95351" lon="-0.33794">
        <ele>1518.54</ele>
        <time>2015-10-31T13:19:53Z</time>
      </trkpt>
      <trkpt lat="42.95342" lon="-0.33763">
        <ele>1519.98</ele>
        <time>2015-10-31T13:20:10Z</time>
      </trkpt>
      <trkpt lat="42.95321" lon="-0.3377">
        <ele>1521.42</ele>
        <time>2015-10-31T13:20:26Z</time>
      </trkpt>
      <trkpt lat="42.95306" lon="-0.33793">
        <ele>1523.83</ele>
        <time>2015-10-31T13:20:44Z</time>
      </trkpt>
      <trkpt lat="42.95296" lon="-0.33773">
        <ele>1525.27</ele>
        <time>2015-10-31T13:20:59Z</time>
      </trkpt>
      <trkpt lat="42.95295" lon="-0.33739">
        <ele>1528.63</ele>
        <time>2015-10-31T13:21:14Z</time>
      </trkpt>
      <trkpt lat="42.95275" lon="-0.33718">
        <ele>1532.48</ele>
        <time>2015-10-31T13:21:32Z</time>
      </trkpt>
      <trkpt lat="42.95248" lon="-0.33705">
        <ele>1538.25</ele>
        <time>2015-10-31T13:21:52Z</time>
      </trkpt>
      <trkpt lat="42.95217" lon="-0.33711">
        <ele>1540.65</ele>
        <time>2015-10-31T13:22:12Z</time>
      </trkpt>
      <trkpt lat="42.95193" lon="-0.33701">
        <ele>1544.98</ele>
        <time>2015-10-31T13:22:30Z</time>
      </trkpt>
      <trkpt lat="42.95165" lon="-0.33688">
        <ele>1549.78</ele>
        <time>2015-10-31T13:22:50Z</time>
      </trkpt>
      <trkpt lat="42.95138" lon="-0.33663">
        <ele>1553.63</ele>
        <time>2015-10-31T13:23:11Z</time>
      </trkpt>
      <trkpt lat="42.95116" lon="-0.33643">
        <ele>1556.51</ele>
        <time>2015-10-31T13:23:28Z</time>
      </trkpt>
      <trkpt lat="42.95091" lon="-0.33638">
        <ele>1559.88</ele>
        <time>2015-10-31T13:23:46Z</time>
      </trkpt>
      <trkpt lat="42.95061" lon="-0.33621">
        <ele>1561.8</ele>
        <time>2015-10-31T13:24:08Z</time>
      </trkpt>
      <trkpt lat="42.95041" lon="-0.33596">
        <ele>1565.64</ele>
        <time>2015-10-31T13:24:29Z</time>
      </trkpt>
      <trkpt lat="42.95023" lon="-0.33571">
        <ele>1570.93</ele>
        <time>2015-10-31T13:24:49Z</time>
      </trkpt>
      <trkpt lat="42.95006" lon="-0.33549">
        <ele>1575.74</ele>
        <time>2015-10-31T13:25:07Z</time>
      </trkpt>
      <trkpt lat="42.94993" lon="-0.33532">
        <ele>1579.1</ele>
        <time>2015-10-31T13:25:22Z</time>
      </trkpt>
      <trkpt lat="42.94973" lon="-0.33539">
        <ele>1581.99</ele>
        <time>2015-10-31T13:25:39Z</time>
      </trkpt>
      <trkpt lat="42.94966" lon="-0.33587">
        <ele>1583.91</ele>
        <time>2015-10-31T13:25:59Z</time>
      </trkpt>
      <trkpt lat="42.94981" lon="-0.33631">
        <ele>1587.75</ele>
        <time>2015-10-31T13:26:18Z</time>
      </trkpt>
      <trkpt lat="42.95001" lon="-0.3367">
        <ele>1591.6</ele>
        <time>2015-10-31T13:26:37Z</time>
      </trkpt>
      <trkpt lat="42.95018" lon="-0.33702">
        <ele>1592.08</ele>
        <time>2015-10-31T13:26:53Z</time>
      </trkpt>
      <trkpt lat="42.95041" lon="-0.33728">
        <ele>1592.08</ele>
        <time>2015-10-31T13:27:08Z</time>
      </trkpt>
      <trkpt lat="42.95059" lon="-0.33769">
        <ele>1592.56</ele>
        <time>2015-10-31T13:27:25Z</time>
      </trkpt>
      <trkpt lat="42.95072" lon="-0.33817">
        <ele>1594.48</ele>
        <time>2015-10-31T13:27:43Z</time>
      </trkpt>
      <trkpt lat="42.9508" lon="-0.33853">
        <ele>1595.45</ele>
        <time>2015-10-31T13:27:57Z</time>
      </trkpt>
      <trkpt lat="42.95084" lon="-0.33874">
        <ele>1596.89</ele>
        <time>2015-10-31T13:28:11Z</time>
      </trkpt>
      <trkpt lat="42.95083" lon="-0.33877">
        <ele>1596.89</ele>
        <time>2015-10-31T13:28:25Z</time>
      </trkpt>
      <trkpt lat="42.95087" lon="-0.33877">
        <ele>1596.41</ele>
        <time>2015-10-31T13:28:51Z</time>
      </trkpt>
      <trkpt lat="42.95084" lon="-0.33875">
        <ele>1594</ele>
        <time>2015-10-31T13:29:09Z</time>
      </trkpt>
      <trkpt lat="42.95086" lon="-0.33875">
        <ele>1594.48</ele>
        <time>2015-10-31T13:29:12Z</time>
      </trkpt>
      <trkpt lat="42.95093" lon="-0.33874">
        <ele>1594.96</ele>
        <time>2015-10-31T13:29:26Z</time>
      </trkpt>
      <trkpt lat="42.95091" lon="-0.33876">
        <ele>1596.41</ele>
        <time>2015-10-31T13:29:54Z</time>
      </trkpt>
      <trkpt lat="42.95086" lon="-0.33873">
        <ele>1597.37</ele>
        <time>2015-10-31T13:30:10Z</time>
      </trkpt>
      <trkpt lat="42.95089" lon="-0.33875">
        <ele>1597.85</ele>
        <time>2015-10-31T13:30:18Z</time>
      </trkpt>
      <trkpt lat="42.9509" lon="-0.33877">
        <ele>1598.33</ele>
        <time>2015-10-31T13:30:21Z</time>
      </trkpt>
      <trkpt lat="42.9508" lon="-0.33864">
        <ele>1598.33</ele>
        <time>2015-10-31T13:30:30Z</time>
      </trkpt>
      <trkpt lat="42.9505" lon="-0.33864">
        <ele>1597.85</ele>
        <time>2015-10-31T13:30:44Z</time>
      </trkpt>
      <trkpt lat="42.95023" lon="-0.33871">
        <ele>1600.25</ele>
        <time>2015-10-31T13:30:59Z</time>
      </trkpt>
      <trkpt lat="42.95004" lon="-0.33884">
        <ele>1601.21</ele>
        <time>2015-10-31T13:31:15Z</time>
      </trkpt>
      <trkpt lat="42.94987" lon="-0.33858">
        <ele>1602.66</ele>
        <time>2015-10-31T13:31:30Z</time>
      </trkpt>
      <trkpt lat="42.94963" lon="-0.33838">
        <ele>1605.06</ele>
        <time>2015-10-31T13:31:48Z</time>
      </trkpt>
      <trkpt lat="42.94933" lon="-0.33825">
        <ele>1606.98</ele>
        <time>2015-10-31T13:32:07Z</time>
      </trkpt>
      <trkpt lat="42.94925" lon="-0.33803">
        <ele>1608.42</ele>
        <time>2015-10-31T13:32:17Z</time>
      </trkpt>
      <trkpt lat="42.94934" lon="-0.33781">
        <ele>1607.46</ele>
        <time>2015-10-31T13:32:22Z</time>
      </trkpt>
      <trkpt lat="42.94946" lon="-0.33761">
        <ele>1606.5</ele>
        <time>2015-10-31T13:32:26Z</time>
      </trkpt>
      <trkpt lat="42.94963" lon="-0.33712">
        <ele>1603.14</ele>
        <time>2015-10-31T13:32:33Z</time>
      </trkpt>
      <trkpt lat="42.9496" lon="-0.33681">
        <ele>1603.62</ele>
        <time>2015-10-31T13:32:43Z</time>
      </trkpt>
      <trkpt lat="42.94946" lon="-0.33685">
        <ele>1604.1</ele>
        <time>2015-10-31T13:32:54Z</time>
      </trkpt>
      <trkpt lat="42.94945" lon="-0.33684">
        <ele>1604.1</ele>
        <time>2015-10-31T13:32:55Z</time>
      </trkpt>
      <trkpt lat="42.9494" lon="-0.33679">
        <ele>1605.06</ele>
        <time>2015-10-31T13:32:59Z</time>
      </trkpt>
      <trkpt lat="42.94938" lon="-0.3367">
        <ele>1606.5</ele>
        <time>2015-10-31T13:33:03Z</time>
      </trkpt>
      <trkpt lat="42.94937" lon="-0.3365">
        <ele>1608.42</ele>
        <time>2015-10-31T13:33:12Z</time>
      </trkpt>
      <trkpt lat="42.94929" lon="-0.33653">
        <ele>1609.38</ele>
        <time>2015-10-31T13:33:18Z</time>
      </trkpt>
      <trkpt lat="42.94922" lon="-0.33654">
        <ele>1610.35</ele>
        <time>2015-10-31T13:33:23Z</time>
      </trkpt>
      <trkpt lat="42.94919" lon="-0.33644">
        <ele>1611.79</ele>
        <time>2015-10-31T13:33:29Z</time>
      </trkpt>
      <trkpt lat="42.94917" lon="-0.33626">
        <ele>1615.63</ele>
        <time>2015-10-31T13:33:39Z</time>
      </trkpt>
      <trkpt lat="42.94905" lon="-0.33626">
        <ele>1616.59</ele>
        <time>2015-10-31T13:33:48Z</time>
      </trkpt>
      <trkpt lat="42.9489" lon="-0.33598">
        <ele>1621.88</ele>
        <time>2015-10-31T13:34:08Z</time>
      </trkpt>
      <trkpt lat="42.9488" lon="-0.33583">
        <ele>1622.84</ele>
        <time>2015-10-31T13:34:20Z</time>
      </trkpt>
      <trkpt lat="42.9487" lon="-0.33571">
        <ele>1624.77</ele>
        <time>2015-10-31T13:34:33Z</time>
      </trkpt>
      <trkpt lat="42.94863" lon="-0.33554">
        <ele>1626.69</ele>
        <time>2015-10-31T13:34:45Z</time>
      </trkpt>
      <trkpt lat="42.94862" lon="-0.33552">
        <ele>1626.69</ele>
        <time>2015-10-31T13:34:47Z</time>
      </trkpt>
      <trkpt lat="42.94854" lon="-0.33566">
        <ele>1628.13</ele>
        <time>2015-10-31T13:34:59Z</time>
      </trkpt>
      <trkpt lat="42.94846" lon="-0.33569">
        <ele>1630.53</ele>
        <time>2015-10-31T13:35:10Z</time>
      </trkpt>
      <trkpt lat="42.94844" lon="-0.33595">
        <ele>1631.98</ele>
        <time>2015-10-31T13:35:25Z</time>
      </trkpt>
      <trkpt lat="42.94844" lon="-0.33619">
        <ele>1636.78</ele>
        <time>2015-10-31T13:35:41Z</time>
      </trkpt>
      <trkpt lat="42.94844" lon="-0.33627">
        <ele>1638.7</ele>
        <time>2015-10-31T13:35:46Z</time>
      </trkpt>
      <trkpt lat="42.94838" lon="-0.33656">
        <ele>1643.99</ele>
        <time>2015-10-31T13:36:07Z</time>
      </trkpt>
      <trkpt lat="42.94834" lon="-0.33685">
        <ele>1647.84</ele>
        <time>2015-10-31T13:36:25Z</time>
      </trkpt>
      <trkpt lat="42.94834" lon="-0.33714">
        <ele>1649.76</ele>
        <time>2015-10-31T13:36:42Z</time>
      </trkpt>
      <trkpt lat="42.9483" lon="-0.33739">
        <ele>1650.24</ele>
        <time>2015-10-31T13:37:00Z</time>
      </trkpt>
      <trkpt lat="42.9481" lon="-0.33749">
        <ele>1652.64</ele>
        <time>2015-10-31T13:37:20Z</time>
      </trkpt>
      <trkpt lat="42.94789" lon="-0.33753">
        <ele>1655.05</ele>
        <time>2015-10-31T13:37:38Z</time>
      </trkpt>
      <trkpt lat="42.94765" lon="-0.33759">
        <ele>1658.89</ele>
        <time>2015-10-31T13:37:59Z</time>
      </trkpt>
      <trkpt lat="42.94747" lon="-0.33769">
        <ele>1662.74</ele>
        <time>2015-10-31T13:38:17Z</time>
      </trkpt>
      <trkpt lat="42.94745" lon="-0.33769">
        <ele>1663.22</ele>
        <time>2015-10-31T13:38:19Z</time>
      </trkpt>
      <trkpt lat="42.94724" lon="-0.33781">
        <ele>1668.51</ele>
        <time>2015-10-31T13:38:40Z</time>
      </trkpt>
      <trkpt lat="42.94704" lon="-0.33798">
        <ele>1670.91</ele>
        <time>2015-10-31T13:39:02Z</time>
      </trkpt>
      <trkpt lat="42.94692" lon="-0.33815">
        <ele>1673.79</ele>
        <time>2015-10-31T13:39:17Z</time>
      </trkpt>
      <trkpt lat="42.94687" lon="-0.33822">
        <ele>1675.23</ele>
        <time>2015-10-31T13:39:24Z</time>
      </trkpt>
      <trkpt lat="42.94681" lon="-0.33833">
        <ele>1677.64</ele>
        <time>2015-10-31T13:39:33Z</time>
      </trkpt>
      <trkpt lat="42.9468" lon="-0.33836">
        <ele>1678.12</ele>
        <time>2015-10-31T13:39:42Z</time>
      </trkpt>
      <trkpt lat="42.94675" lon="-0.33841">
        <ele>1681.48</ele>
        <time>2015-10-31T13:39:55Z</time>
      </trkpt>
      <trkpt lat="42.94671" lon="-0.33827">
        <ele>1682.93</ele>
        <time>2015-10-31T13:40:09Z</time>
      </trkpt>
      <trkpt lat="42.9467" lon="-0.33825">
        <ele>1683.41</ele>
        <time>2015-10-31T13:40:10Z</time>
      </trkpt>
      <trkpt lat="42.94674" lon="-0.338">
        <ele>1690.62</ele>
        <time>2015-10-31T13:40:27Z</time>
      </trkpt>
      <trkpt lat="42.94678" lon="-0.33775">
        <ele>1699.27</ele>
        <time>2015-10-31T13:40:46Z</time>
      </trkpt>
      <trkpt lat="42.94688" lon="-0.33746">
        <ele>1706.48</ele>
        <time>2015-10-31T13:41:07Z</time>
      </trkpt>
      <trkpt lat="42.94703" lon="-0.33725">
        <ele>1710.8</ele>
        <time>2015-10-31T13:41:26Z</time>
      </trkpt>
      <trkpt lat="42.947" lon="-0.3371">
        <ele>1713.21</ele>
        <time>2015-10-31T13:41:40Z</time>
      </trkpt>
      <trkpt lat="42.94681" lon="-0.3372">
        <ele>1717.05</ele>
        <time>2015-10-31T13:41:59Z</time>
      </trkpt>
      <trkpt lat="42.94663" lon="-0.33735">
        <ele>1718.97</ele>
        <time>2015-10-31T13:42:18Z</time>
      </trkpt>
      <trkpt lat="42.94651" lon="-0.33755">
        <ele>1721.86</ele>
        <time>2015-10-31T13:42:36Z</time>
      </trkpt>
      <trkpt lat="42.94642" lon="-0.33777">
        <ele>1721.86</ele>
        <time>2015-10-31T13:42:52Z</time>
      </trkpt>
      <trkpt lat="42.94638" lon="-0.33787">
        <ele>1722.34</ele>
        <time>2015-10-31T13:42:59Z</time>
      </trkpt>
      <trkpt lat="42.94624" lon="-0.33805">
        <ele>1726.18</ele>
        <time>2015-10-31T13:43:16Z</time>
      </trkpt>
      <trkpt lat="42.94622" lon="-0.33819">
        <ele>1727.63</ele>
        <time>2015-10-31T13:43:27Z</time>
      </trkpt>
      <trkpt lat="42.94607" lon="-0.33833">
        <ele>1731.95</ele>
        <time>2015-10-31T13:43:45Z</time>
      </trkpt>
      <trkpt lat="42.94605" lon="-0.33831">
        <ele>1731.47</ele>
        <time>2015-10-31T13:43:51Z</time>
      </trkpt>
      <trkpt lat="42.94605" lon="-0.33831">
        <ele>1732.91</ele>
        <time>2015-10-31T13:44:02Z</time>
      </trkpt>
      <trkpt lat="42.94605" lon="-0.33833">
        <ele>1731.47</ele>
        <time>2015-10-31T13:44:23Z</time>
      </trkpt>
      <trkpt lat="42.94602" lon="-0.33831">
        <ele>1732.43</ele>
        <time>2015-10-31T13:44:27Z</time>
      </trkpt>
      <trkpt lat="42.94597" lon="-0.33828">
        <ele>1732.91</ele>
        <time>2015-10-31T13:44:33Z</time>
      </trkpt>
      <trkpt lat="42.94594" lon="-0.33825">
        <ele>1732.91</ele>
        <time>2015-10-31T13:44:38Z</time>
      </trkpt>
      <trkpt lat="42.94593" lon="-0.33812">
        <ele>1733.39</ele>
        <time>2015-10-31T13:44:46Z</time>
      </trkpt>
      <trkpt lat="42.94589" lon="-0.33787">
        <ele>1735.8</ele>
        <time>2015-10-31T13:45:03Z</time>
      </trkpt>
      <trkpt lat="42.94581" lon="-0.3375">
        <ele>1737.72</ele>
        <time>2015-10-31T13:45:22Z</time>
      </trkpt>
      <trkpt lat="42.94573" lon="-0.33728">
        <ele>1740.12</ele>
        <time>2015-10-31T13:45:37Z</time>
      </trkpt>
      <trkpt lat="42.94558" lon="-0.33739">
        <ele>1743.01</ele>
        <time>2015-10-31T13:45:55Z</time>
      </trkpt>
      <trkpt lat="42.94547" lon="-0.33762">
        <ele>1746.37</ele>
        <time>2015-10-31T13:46:15Z</time>
      </trkpt>
      <trkpt lat="42.94543" lon="-0.33781">
        <ele>1748.29</ele>
        <time>2015-10-31T13:46:28Z</time>
      </trkpt>
      <trkpt lat="42.94545" lon="-0.33786">
        <ele>1749.26</ele>
        <time>2015-10-31T13:46:32Z</time>
      </trkpt>
      <trkpt lat="42.94538" lon="-0.33809">
        <ele>1753.1</ele>
        <time>2015-10-31T13:46:50Z</time>
      </trkpt>
      <trkpt lat="42.94529" lon="-0.3383">
        <ele>1755.99</ele>
        <time>2015-10-31T13:47:07Z</time>
      </trkpt>
      <trkpt lat="42.94528" lon="-0.33831">
        <ele>1756.95</ele>
        <time>2015-10-31T13:47:21Z</time>
      </trkpt>
      <trkpt lat="42.94528" lon="-0.33833">
        <ele>1757.91</ele>
        <time>2015-10-31T13:47:24Z</time>
      </trkpt>
      <trkpt lat="42.94526" lon="-0.33831">
        <ele>1758.39</ele>
        <time>2015-10-31T13:47:27Z</time>
      </trkpt>
      <trkpt lat="42.9452" lon="-0.33841">
        <ele>1758.87</ele>
        <time>2015-10-31T13:47:36Z</time>
      </trkpt>
      <trkpt lat="42.94515" lon="-0.33842">
        <ele>1759.35</ele>
        <time>2015-10-31T13:47:40Z</time>
      </trkpt>
      <trkpt lat="42.94495" lon="-0.33844">
        <ele>1762.23</ele>
        <time>2015-10-31T13:47:58Z</time>
      </trkpt>
      <trkpt lat="42.94468" lon="-0.33845">
        <ele>1766.08</ele>
        <time>2015-10-31T13:48:17Z</time>
      </trkpt>
      <trkpt lat="42.94454" lon="-0.33828">
        <ele>1770.89</ele>
        <time>2015-10-31T13:48:34Z</time>
      </trkpt>
      <trkpt lat="42.94454" lon="-0.33823">
        <ele>1771.37</ele>
        <time>2015-10-31T13:48:37Z</time>
      </trkpt>
      <trkpt lat="42.94461" lon="-0.33814">
        <ele>1773.29</ele>
        <time>2015-10-31T13:48:43Z</time>
      </trkpt>
      <trkpt lat="42.94479" lon="-0.33799">
        <ele>1778.58</ele>
        <time>2015-10-31T13:49:02Z</time>
      </trkpt>
      <trkpt lat="42.94491" lon="-0.33799">
        <ele>1777.61</ele>
        <time>2015-10-31T13:49:18Z</time>
      </trkpt>
      <trkpt lat="42.94491" lon="-0.33801">
        <ele>1770.41</ele>
        <time>2015-10-31T13:49:33Z</time>
      </trkpt>
      <trkpt lat="42.94491" lon="-0.33801">
        <ele>1767.52</ele>
        <time>2015-10-31T13:49:54Z</time>
      </trkpt>
      <trkpt lat="42.94493" lon="-0.33805">
        <ele>1766.08</ele>
        <time>2015-10-31T13:50:18Z</time>
      </trkpt>
      <trkpt lat="42.94493" lon="-0.33804">
        <ele>1765.12</ele>
        <time>2015-10-31T13:50:33Z</time>
      </trkpt>
      <trkpt lat="42.94486" lon="-0.33796">
        <ele>1766.08</ele>
        <time>2015-10-31T13:50:42Z</time>
      </trkpt>
      <trkpt lat="42.94462" lon="-0.33802">
        <ele>1762.71</ele>
        <time>2015-10-31T13:50:52Z</time>
      </trkpt>
      <trkpt lat="42.94444" lon="-0.33781">
        <ele>1761.75</ele>
        <time>2015-10-31T13:50:59Z</time>
      </trkpt>
      <trkpt lat="42.94447" lon="-0.33769">
        <ele>1764.64</ele>
        <time>2015-10-31T13:51:06Z</time>
      </trkpt>
      <trkpt lat="42.94453" lon="-0.33762">
        <ele>1768.48</ele>
        <time>2015-10-31T13:51:18Z</time>
      </trkpt>
      <trkpt lat="42.94454" lon="-0.33756">
        <ele>1770.89</ele>
        <time>2015-10-31T13:51:42Z</time>
      </trkpt>
      <trkpt lat="42.94454" lon="-0.33755">
        <ele>1767.04</ele>
        <time>2015-10-31T13:52:11Z</time>
      </trkpt>
      <trkpt lat="42.94447" lon="-0.33739">
        <ele>1767.52</ele>
        <time>2015-10-31T13:52:17Z</time>
      </trkpt>
      <trkpt lat="42.94446" lon="-0.33729">
        <ele>1767.04</ele>
        <time>2015-10-31T13:52:20Z</time>
      </trkpt>
      <trkpt lat="42.94447" lon="-0.3372">
        <ele>1769.44</ele>
        <time>2015-10-31T13:52:28Z</time>
      </trkpt>
      <trkpt lat="42.94446" lon="-0.3372">
        <ele>1769.44</ele>
        <time>2015-10-31T13:52:29Z</time>
      </trkpt>
      <trkpt lat="42.94452" lon="-0.33703">
        <ele>1770.89</ele>
        <time>2015-10-31T13:52:37Z</time>
      </trkpt>
      <trkpt lat="42.94454" lon="-0.33699">
        <ele>1770.41</ele>
        <time>2015-10-31T13:52:39Z</time>
      </trkpt>
      <trkpt lat="42.94472" lon="-0.33674">
        <ele>1764.16</ele>
        <time>2015-10-31T13:52:51Z</time>
      </trkpt>
      <trkpt lat="42.9448" lon="-0.33642">
        <ele>1756.47</ele>
        <time>2015-10-31T13:53:04Z</time>
      </trkpt>
      <trkpt lat="42.94482" lon="-0.33625">
        <ele>1752.62</ele>
        <time>2015-10-31T13:53:14Z</time>
      </trkpt>
      <trkpt lat="42.94479" lon="-0.33616">
        <ele>1751.18</ele>
        <time>2015-10-31T13:53:26Z</time>
      </trkpt>
      <trkpt lat="42.9448" lon="-0.33608">
        <ele>1749.26</ele>
        <time>2015-10-31T13:53:33Z</time>
      </trkpt>
      <trkpt lat="42.94481" lon="-0.33605">
        <ele>1748.29</ele>
        <time>2015-10-31T13:53:35Z</time>
      </trkpt>
      <trkpt lat="42.94492" lon="-0.33594">
        <ele>1742.53</ele>
        <time>2015-10-31T13:53:50Z</time>
      </trkpt>
      <trkpt lat="42.94495" lon="-0.33593">
        <ele>1737.72</ele>
        <time>2015-10-31T13:54:01Z</time>
      </trkpt>
      <trkpt lat="42.94494" lon="-0.33581">
        <ele>1735.8</ele>
        <time>2015-10-31T13:54:07Z</time>
      </trkpt>
      <trkpt lat="42.94482" lon="-0.33554">
        <ele>1726.18</ele>
        <time>2015-10-31T13:54:22Z</time>
      </trkpt>
      <trkpt lat="42.94481" lon="-0.33549">
        <ele>1724.74</ele>
        <time>2015-10-31T13:54:25Z</time>
      </trkpt>
      <trkpt lat="42.94478" lon="-0.33542">
        <ele>1723.3</ele>
        <time>2015-10-31T13:54:30Z</time>
      </trkpt>
      <trkpt lat="42.94476" lon="-0.33491">
        <ele>1723.78</ele>
        <time>2015-10-31T13:54:46Z</time>
      </trkpt>
      <trkpt lat="42.94474" lon="-0.33431">
        <ele>1726.18</ele>
        <time>2015-10-31T13:55:04Z</time>
      </trkpt>
      <trkpt lat="42.94476" lon="-0.33384">
        <ele>1725.7</ele>
        <time>2015-10-31T13:55:19Z</time>
      </trkpt>
      <trkpt lat="42.94489" lon="-0.33359">
        <ele>1726.67</ele>
        <time>2015-10-31T13:55:29Z</time>
      </trkpt>
      <trkpt lat="42.94505" lon="-0.3335">
        <ele>1729.07</ele>
        <time>2015-10-31T13:55:38Z</time>
      </trkpt>
      <trkpt lat="42.94507" lon="-0.33341">
        <ele>1730.51</ele>
        <time>2015-10-31T13:55:43Z</time>
      </trkpt>
      <trkpt lat="42.94499" lon="-0.3334">
        <ele>1732.91</ele>
        <time>2015-10-31T13:55:51Z</time>
      </trkpt>
      <trkpt lat="42.94495" lon="-0.33335">
        <ele>1732.91</ele>
        <time>2015-10-31T13:55:56Z</time>
      </trkpt>
      <trkpt lat="42.94487" lon="-0.33328">
        <ele>1735.8</ele>
        <time>2015-10-31T13:56:10Z</time>
      </trkpt>
      <trkpt lat="42.94485" lon="-0.33314">
        <ele>1737.24</ele>
        <time>2015-10-31T13:56:25Z</time>
      </trkpt>
      <trkpt lat="42.94481" lon="-0.33304">
        <ele>1737.24</ele>
        <time>2015-10-31T13:56:40Z</time>
      </trkpt>
      <trkpt lat="42.94481" lon="-0.33306">
        <ele>1735.32</ele>
        <time>2015-10-31T13:56:54Z</time>
      </trkpt>
      <trkpt lat="42.9448" lon="-0.33304">
        <ele>1734.36</ele>
        <time>2015-10-31T13:57:08Z</time>
      </trkpt>
      <trkpt lat="42.94475" lon="-0.33295">
        <ele>1736.28</ele>
        <time>2015-10-31T13:57:24Z</time>
      </trkpt>
      <trkpt lat="42.94467" lon="-0.33287">
        <ele>1738.2</ele>
        <time>2015-10-31T13:57:40Z</time>
      </trkpt>
      <trkpt lat="42.94464" lon="-0.3328">
        <ele>1739.16</ele>
        <time>2015-10-31T13:57:46Z</time>
      </trkpt>
      <trkpt lat="42.94464" lon="-0.3327">
        <ele>1740.6</ele>
        <time>2015-10-31T13:57:53Z</time>
      </trkpt>
      <trkpt lat="42.94468" lon="-0.33265">
        <ele>1741.08</ele>
        <time>2015-10-31T13:57:57Z</time>
      </trkpt>
      <trkpt lat="42.94488" lon="-0.33242">
        <ele>1741.08</ele>
        <time>2015-10-31T13:58:09Z</time>
      </trkpt>
      <trkpt lat="42.94506" lon="-0.3321">
        <ele>1741.08</ele>
        <time>2015-10-31T13:58:21Z</time>
      </trkpt>
      <trkpt lat="42.94508" lon="-0.33206">
        <ele>1740.6</ele>
        <time>2015-10-31T13:58:23Z</time>
      </trkpt>
      <trkpt lat="42.94519" lon="-0.33191">
        <ele>1740.12</ele>
        <time>2015-10-31T13:58:30Z</time>
      </trkpt>
      <trkpt lat="42.94524" lon="-0.3318">
        <ele>1740.12</ele>
        <time>2015-10-31T13:58:37Z</time>
      </trkpt>
      <trkpt lat="42.94531" lon="-0.33183">
        <ele>1739.64</ele>
        <time>2015-10-31T13:58:50Z</time>
      </trkpt>
      <trkpt lat="42.94537" lon="-0.33178">
        <ele>1738.68</ele>
        <time>2015-10-31T13:59:01Z</time>
      </trkpt>
      <trkpt lat="42.94545" lon="-0.33159">
        <ele>1734.84</ele>
        <time>2015-10-31T13:59:11Z</time>
      </trkpt>
      <trkpt lat="42.94553" lon="-0.33154">
        <ele>1731.95</ele>
        <time>2015-10-31T13:59:18Z</time>
      </trkpt>
      <trkpt lat="42.94559" lon="-0.33151">
        <ele>1729.55</ele>
        <time>2015-10-31T13:59:24Z</time>
      </trkpt>
      <trkpt lat="42.94565" lon="-0.33145">
        <ele>1726.67</ele>
        <time>2015-10-31T13:59:32Z</time>
      </trkpt>
      <trkpt lat="42.94568" lon="-0.33142">
        <ele>1726.18</ele>
        <time>2015-10-31T13:59:39Z</time>
      </trkpt>
      <trkpt lat="42.94567" lon="-0.33137">
        <ele>1727.63</ele>
        <time>2015-10-31T13:59:51Z</time>
      </trkpt>
      <trkpt lat="42.94564" lon="-0.33135">
        <ele>1728.11</ele>
        <time>2015-10-31T14:00:07Z</time>
      </trkpt>
      <trkpt lat="42.94559" lon="-0.33127">
        <ele>1728.59</ele>
        <time>2015-10-31T14:00:20Z</time>
      </trkpt>
      <trkpt lat="42.94557" lon="-0.33126">
        <ele>1729.07</ele>
        <time>2015-10-31T14:00:32Z</time>
      </trkpt>
      <trkpt lat="42.94558" lon="-0.33119">
        <ele>1728.59</ele>
        <time>2015-10-31T14:00:51Z</time>
      </trkpt>
      <trkpt lat="42.94554" lon="-0.33112">
        <ele>1730.51</ele>
        <time>2015-10-31T14:01:04Z</time>
      </trkpt>
      <trkpt lat="42.94551" lon="-0.33104">
        <ele>1731.47</ele>
        <time>2015-10-31T14:01:16Z</time>
      </trkpt>
      <trkpt lat="42.94547" lon="-0.33099">
        <ele>1732.91</ele>
        <time>2015-10-31T14:01:31Z</time>
      </trkpt>
      <trkpt lat="42.94545" lon="-0.33089">
        <ele>1734.84</ele>
        <time>2015-10-31T14:01:46Z</time>
      </trkpt>
      <trkpt lat="42.94542" lon="-0.33079">
        <ele>1737.24</ele>
        <time>2015-10-31T14:02:01Z</time>
      </trkpt>
      <trkpt lat="42.94539" lon="-0.33066">
        <ele>1740.6</ele>
        <time>2015-10-31T14:02:18Z</time>
      </trkpt>
      <trkpt lat="42.94539" lon="-0.33056">
        <ele>1743.01</ele>
        <time>2015-10-31T14:02:34Z</time>
      </trkpt>
      <trkpt lat="42.94535" lon="-0.33053">
        <ele>1743.49</ele>
        <time>2015-10-31T14:02:47Z</time>
      </trkpt>
      <trkpt lat="42.94535" lon="-0.33049">
        <ele>1743.49</ele>
        <time>2015-10-31T14:03:06Z</time>
      </trkpt>
      <trkpt lat="42.94535" lon="-0.3305">
        <ele>1744.93</ele>
        <time>2015-10-31T14:03:32Z</time>
      </trkpt>
      <trkpt lat="42.94532" lon="-0.33051">
        <ele>1744.45</ele>
        <time>2015-10-31T14:03:47Z</time>
      </trkpt>
      <trkpt lat="42.94528" lon="-0.33047">
        <ele>1746.85</ele>
        <time>2015-10-31T14:04:02Z</time>
      </trkpt>
      <trkpt lat="42.94525" lon="-0.33035">
        <ele>1751.18</ele>
        <time>2015-10-31T14:04:20Z</time>
      </trkpt>
      <trkpt lat="42.94522" lon="-0.33024">
        <ele>1755.02</ele>
        <time>2015-10-31T14:04:35Z</time>
      </trkpt>
      <trkpt lat="42.94521" lon="-0.33011">
        <ele>1758.87</ele>
        <time>2015-10-31T14:04:50Z</time>
      </trkpt>
      <trkpt lat="42.94522" lon="-0.32999">
        <ele>1759.83</ele>
        <time>2015-10-31T14:05:04Z</time>
      </trkpt>
      <trkpt lat="42.94521" lon="-0.32991">
        <ele>1761.75</ele>
        <time>2015-10-31T14:05:17Z</time>
      </trkpt>
      <trkpt lat="42.94515" lon="-0.32979">
        <ele>1762.23</ele>
        <time>2015-10-31T14:05:34Z</time>
      </trkpt>
      <trkpt lat="42.94514" lon="-0.3297">
        <ele>1763.2</ele>
        <time>2015-10-31T14:05:47Z</time>
      </trkpt>
      <trkpt lat="42.9451" lon="-0.32959">
        <ele>1764.16</ele>
        <time>2015-10-31T14:06:02Z</time>
      </trkpt>
      <trkpt lat="42.94507" lon="-0.3295">
        <ele>1766.56</ele>
        <time>2015-10-31T14:06:15Z</time>
      </trkpt>
      <trkpt lat="42.94504" lon="-0.32937">
        <ele>1769.44</ele>
        <time>2015-10-31T14:06:30Z</time>
      </trkpt>
      <trkpt lat="42.94502" lon="-0.32939">
        <ele>1770.41</ele>
        <time>2015-10-31T14:06:48Z</time>
      </trkpt>
      <trkpt lat="42.94501" lon="-0.32935">
        <ele>1767.52</ele>
        <time>2015-10-31T14:07:14Z</time>
      </trkpt>
      <trkpt lat="42.94504" lon="-0.32933">
        <ele>1766.56</ele>
        <time>2015-10-31T14:07:41Z</time>
      </trkpt>
      <trkpt lat="42.94501" lon="-0.32935">
        <ele>1766.56</ele>
        <time>2015-10-31T14:08:07Z</time>
      </trkpt>
      <trkpt lat="42.94491" lon="-0.32939">
        <ele>1770.89</ele>
        <time>2015-10-31T14:08:23Z</time>
      </trkpt>
      <trkpt lat="42.94487" lon="-0.32922">
        <ele>1772.81</ele>
        <time>2015-10-31T14:08:40Z</time>
      </trkpt>
      <trkpt lat="42.94481" lon="-0.32921">
        <ele>1772.81</ele>
        <time>2015-10-31T14:08:57Z</time>
      </trkpt>
      <trkpt lat="42.94481" lon="-0.32925">
        <ele>1773.77</ele>
        <time>2015-10-31T14:09:09Z</time>
      </trkpt>
      <trkpt lat="42.94482" lon="-0.32924">
        <ele>1773.29</ele>
        <time>2015-10-31T14:09:20Z</time>
      </trkpt>
      <trkpt lat="42.9448" lon="-0.32923">
        <ele>1772.81</ele>
        <time>2015-10-31T14:09:37Z</time>
      </trkpt>
      <trkpt lat="42.94481" lon="-0.32922">
        <ele>1770.89</ele>
        <time>2015-10-31T14:09:51Z</time>
      </trkpt>
      <trkpt lat="42.9448" lon="-0.32923">
        <ele>1770.89</ele>
        <time>2015-10-31T14:10:03Z</time>
      </trkpt>
      <trkpt lat="42.94474" lon="-0.32927">
        <ele>1772.81</ele>
        <time>2015-10-31T14:10:15Z</time>
      </trkpt>
      <trkpt lat="42.94472" lon="-0.32937">
        <ele>1773.77</ele>
        <time>2015-10-31T14:10:26Z</time>
      </trkpt>
      <trkpt lat="42.94464" lon="-0.32946">
        <ele>1777.61</ele>
        <time>2015-10-31T14:10:40Z</time>
      </trkpt>
      <trkpt lat="42.94458" lon="-0.32954">
        <ele>1780.5</ele>
        <time>2015-10-31T14:10:53Z</time>
      </trkpt>
      <trkpt lat="42.94451" lon="-0.32961">
        <ele>1783.38</ele>
        <time>2015-10-31T14:11:10Z</time>
      </trkpt>
      <trkpt lat="42.9444" lon="-0.32967">
        <ele>1786.75</ele>
        <time>2015-10-31T14:11:30Z</time>
      </trkpt>
      <trkpt lat="42.94438" lon="-0.3297">
        <ele>1787.23</ele>
        <time>2015-10-31T14:11:46Z</time>
      </trkpt>
      <trkpt lat="42.94441" lon="-0.32969">
        <ele>1787.71</ele>
        <time>2015-10-31T14:12:06Z</time>
      </trkpt>
      <trkpt lat="42.9444" lon="-0.32967">
        <ele>1785.31</ele>
        <time>2015-10-31T14:12:25Z</time>
      </trkpt>
      <trkpt lat="42.9444" lon="-0.32965">
        <ele>1785.79</ele>
        <time>2015-10-31T14:12:40Z</time>
      </trkpt>
      <trkpt lat="42.94439" lon="-0.32965">
        <ele>1785.79</ele>
        <time>2015-10-31T14:13:00Z</time>
      </trkpt>
      <trkpt lat="42.94435" lon="-0.32969">
        <ele>1786.75</ele>
        <time>2015-10-31T14:13:15Z</time>
      </trkpt>
      <trkpt lat="42.94423" lon="-0.32978">
        <ele>1789.63</ele>
        <time>2015-10-31T14:13:30Z</time>
      </trkpt>
      <trkpt lat="42.94419" lon="-0.32981">
        <ele>1790.11</ele>
        <time>2015-10-31T14:13:40Z</time>
      </trkpt>
      <trkpt lat="42.94413" lon="-0.32989">
        <ele>1792.52</ele>
        <time>2015-10-31T14:13:54Z</time>
      </trkpt>
      <trkpt lat="42.94402" lon="-0.32997">
        <ele>1795.4</ele>
        <time>2015-10-31T14:14:10Z</time>
      </trkpt>
      <trkpt lat="42.94393" lon="-0.33003">
        <ele>1799.24</ele>
        <time>2015-10-31T14:14:26Z</time>
      </trkpt>
      <trkpt lat="42.94386" lon="-0.33008">
        <ele>1800.21</ele>
        <time>2015-10-31T14:14:34Z</time>
      </trkpt>
      <trkpt lat="42.94376" lon="-0.33021">
        <ele>1803.09</ele>
        <time>2015-10-31T14:14:49Z</time>
      </trkpt>
      <trkpt lat="42.94354" lon="-0.33016">
        <ele>1804.53</ele>
        <time>2015-10-31T14:15:06Z</time>
      </trkpt>
      <trkpt lat="42.94329" lon="-0.33017">
        <ele>1806.45</ele>
        <time>2015-10-31T14:15:22Z</time>
      </trkpt>
      <trkpt lat="42.94309" lon="-0.33025">
        <ele>1809.82</ele>
        <time>2015-10-31T14:15:40Z</time>
      </trkpt>
      <trkpt lat="42.94296" lon="-0.33035">
        <ele>1811.74</ele>
        <time>2015-10-31T14:15:55Z</time>
      </trkpt>
      <trkpt lat="42.94289" lon="-0.33028">
        <ele>1812.22</ele>
        <time>2015-10-31T14:16:03Z</time>
      </trkpt>
      <trkpt lat="42.94281" lon="-0.33017">
        <ele>1814.15</ele>
        <time>2015-10-31T14:16:15Z</time>
      </trkpt>
      <trkpt lat="42.94273" lon="-0.33024">
        <ele>1816.55</ele>
        <time>2015-10-31T14:16:24Z</time>
      </trkpt>
      <trkpt lat="42.94269" lon="-0.33029">
        <ele>1817.51</ele>
        <time>2015-10-31T14:16:30Z</time>
      </trkpt>
      <trkpt lat="42.94256" lon="-0.33037">
        <ele>1818.95</ele>
        <time>2015-10-31T14:16:44Z</time>
      </trkpt>
      <trkpt lat="42.94256" lon="-0.33025">
        <ele>1820.39</ele>
        <time>2015-10-31T14:16:53Z</time>
      </trkpt>
      <trkpt lat="42.94249" lon="-0.33007">
        <ele>1820.87</ele>
        <time>2015-10-31T14:17:07Z</time>
      </trkpt>
      <trkpt lat="42.94243" lon="-0.33009">
        <ele>1822.32</ele>
        <time>2015-10-31T14:17:12Z</time>
      </trkpt>
      <trkpt lat="42.94239" lon="-0.33001">
        <ele>1823.76</ele>
        <time>2015-10-31T14:17:20Z</time>
      </trkpt>
      <trkpt lat="42.94238" lon="-0.32996">
        <ele>1824.72</ele>
        <time>2015-10-31T14:17:24Z</time>
      </trkpt>
      <trkpt lat="42.94232" lon="-0.32995">
        <ele>1826.64</ele>
        <time>2015-10-31T14:17:32Z</time>
      </trkpt>
      <trkpt lat="42.94226" lon="-0.32996">
        <ele>1826.64</ele>
        <time>2015-10-31T14:17:38Z</time>
      </trkpt>
      <trkpt lat="42.94211" lon="-0.32988">
        <ele>1828.56</ele>
        <time>2015-10-31T14:17:54Z</time>
      </trkpt>
      <trkpt lat="42.94208" lon="-0.32982">
        <ele>1828.56</ele>
        <time>2015-10-31T14:17:59Z</time>
      </trkpt>
      <trkpt lat="42.94206" lon="-0.3298">
        <ele>1829.05</ele>
        <time>2015-10-31T14:18:02Z</time>
      </trkpt>
      <trkpt lat="42.94199" lon="-0.32957">
        <ele>1831.45</ele>
        <time>2015-10-31T14:18:20Z</time>
      </trkpt>
      <trkpt lat="42.94193" lon="-0.32933">
        <ele>1833.85</ele>
        <time>2015-10-31T14:18:39Z</time>
      </trkpt>
      <trkpt lat="42.94177" lon="-0.32938">
        <ele>1837.22</ele>
        <time>2015-10-31T14:18:56Z</time>
      </trkpt>
      <trkpt lat="42.94178" lon="-0.32935">
        <ele>1836.74</ele>
        <time>2015-10-31T14:19:06Z</time>
      </trkpt>
      <trkpt lat="42.94181" lon="-0.32918">
        <ele>1838.18</ele>
        <time>2015-10-31T14:19:20Z</time>
      </trkpt>
      <trkpt lat="42.94181" lon="-0.32919">
        <ele>1837.22</ele>
        <time>2015-10-31T14:19:30Z</time>
      </trkpt>
      <trkpt lat="42.94181" lon="-0.32905">
        <ele>1839.62</ele>
        <time>2015-10-31T14:19:44Z</time>
      </trkpt>
      <trkpt lat="42.94177" lon="-0.32898">
        <ele>1842.98</ele>
        <time>2015-10-31T14:19:59Z</time>
      </trkpt>
      <trkpt lat="42.94164" lon="-0.32908">
        <ele>1844.91</ele>
        <time>2015-10-31T14:20:17Z</time>
      </trkpt>
      <trkpt lat="42.94163" lon="-0.32908">
        <ele>1845.87</ele>
        <time>2015-10-31T14:20:31Z</time>
      </trkpt>
      <trkpt lat="42.94162" lon="-0.32897">
        <ele>1848.27</ele>
        <time>2015-10-31T14:20:47Z</time>
      </trkpt>
      <trkpt lat="42.9416" lon="-0.32884">
        <ele>1851.64</ele>
        <time>2015-10-31T14:21:06Z</time>
      </trkpt>
      <trkpt lat="42.94158" lon="-0.32873">
        <ele>1854.52</ele>
        <time>2015-10-31T14:21:22Z</time>
      </trkpt>
      <trkpt lat="42.94152" lon="-0.3287">
        <ele>1855.48</ele>
        <time>2015-10-31T14:21:37Z</time>
      </trkpt>
      <trkpt lat="42.94143" lon="-0.32868">
        <ele>1858.37</ele>
        <time>2015-10-31T14:21:54Z</time>
      </trkpt>
      <trkpt lat="42.94137" lon="-0.32866">
        <ele>1860.29</ele>
        <time>2015-10-31T14:22:09Z</time>
      </trkpt>
      <trkpt lat="42.94131" lon="-0.3286">
        <ele>1863.17</ele>
        <time>2015-10-31T14:22:27Z</time>
      </trkpt>
      <trkpt lat="42.9413" lon="-0.32848">
        <ele>1866.54</ele>
        <time>2015-10-31T14:22:47Z</time>
      </trkpt>
      <trkpt lat="42.9413" lon="-0.32834">
        <ele>1869.42</ele>
        <time>2015-10-31T14:23:07Z</time>
      </trkpt>
      <trkpt lat="42.94126" lon="-0.32832">
        <ele>1870.86</ele>
        <time>2015-10-31T14:23:20Z</time>
      </trkpt>
      <trkpt lat="42.94122" lon="-0.32834">
        <ele>1874.71</ele>
        <time>2015-10-31T14:23:35Z</time>
      </trkpt>
      <trkpt lat="42.94121" lon="-0.32828">
        <ele>1876.63</ele>
        <time>2015-10-31T14:23:53Z</time>
      </trkpt>
      <trkpt lat="42.94114" lon="-0.32828">
        <ele>1879.03</ele>
        <time>2015-10-31T14:24:08Z</time>
      </trkpt>
      <trkpt lat="42.94112" lon="-0.3282">
        <ele>1884.32</ele>
        <time>2015-10-31T14:24:26Z</time>
      </trkpt>
      <trkpt lat="42.94112" lon="-0.3281">
        <ele>1886.72</ele>
        <time>2015-10-31T14:24:40Z</time>
      </trkpt>
      <trkpt lat="42.94111" lon="-0.32801">
        <ele>1890.57</ele>
        <time>2015-10-31T14:24:56Z</time>
      </trkpt>
      <trkpt lat="42.9411" lon="-0.32794">
        <ele>1891.05</ele>
        <time>2015-10-31T14:25:10Z</time>
      </trkpt>
      <trkpt lat="42.94102" lon="-0.3279">
        <ele>1892.01</ele>
        <time>2015-10-31T14:25:25Z</time>
      </trkpt>
      <trkpt lat="42.94094" lon="-0.32786">
        <ele>1894.42</ele>
        <time>2015-10-31T14:25:41Z</time>
      </trkpt>
      <trkpt lat="42.94096" lon="-0.32783">
        <ele>1896.82</ele>
        <time>2015-10-31T14:25:52Z</time>
      </trkpt>
      <trkpt lat="42.94096" lon="-0.3278">
        <ele>1895.86</ele>
        <time>2015-10-31T14:26:02Z</time>
      </trkpt>
      <trkpt lat="42.94096" lon="-0.32783">
        <ele>1897.3</ele>
        <time>2015-10-31T14:26:22Z</time>
      </trkpt>
      <trkpt lat="42.94095" lon="-0.32782">
        <ele>1898.74</ele>
        <time>2015-10-31T14:27:00Z</time>
      </trkpt>
      <trkpt lat="42.94095" lon="-0.32782">
        <ele>1899.7</ele>
        <time>2015-10-31T14:27:42Z</time>
      </trkpt>
      <trkpt lat="42.94095" lon="-0.32781">
        <ele>1898.26</ele>
        <time>2015-10-31T14:28:00Z</time>
      </trkpt>
      <trkpt lat="42.94095" lon="-0.32779">
        <ele>1899.7</ele>
        <time>2015-10-31T14:28:20Z</time>
      </trkpt>
      <trkpt lat="42.94095" lon="-0.32779">
        <ele>1900.18</ele>
        <time>2015-10-31T14:28:22Z</time>
      </trkpt>
      <trkpt lat="42.94115" lon="-0.32772">
        <ele>1898.74</ele>
        <time>2015-10-31T14:28:33Z</time>
      </trkpt>
      <trkpt lat="42.94135" lon="-0.32765">
        <ele>1900.66</ele>
        <time>2015-10-31T14:28:46Z</time>
      </trkpt>
      <trkpt lat="42.94158" lon="-0.32757">
        <ele>1904.03</ele>
        <time>2015-10-31T14:29:02Z</time>
      </trkpt>
      <trkpt lat="42.94159" lon="-0.32756">
        <ele>1904.03</ele>
        <time>2015-10-31T14:29:03Z</time>
      </trkpt>
      <trkpt lat="42.94158" lon="-0.32745">
        <ele>1905.95</ele>
        <time>2015-10-31T14:29:10Z</time>
      </trkpt>
      <trkpt lat="42.94151" lon="-0.32742">
        <ele>1908.35</ele>
        <time>2015-10-31T14:29:17Z</time>
      </trkpt>
      <trkpt lat="42.94141" lon="-0.32737">
        <ele>1910.28</ele>
        <time>2015-10-31T14:29:27Z</time>
      </trkpt>
      <trkpt lat="42.94136" lon="-0.32734">
        <ele>1912.2</ele>
        <time>2015-10-31T14:29:38Z</time>
      </trkpt>
      <trkpt lat="42.94125" lon="-0.32726">
        <ele>1916.53</ele>
        <time>2015-10-31T14:29:56Z</time>
      </trkpt>
      <trkpt lat="42.94115" lon="-0.32717">
        <ele>1919.89</ele>
        <time>2015-10-31T14:30:13Z</time>
      </trkpt>
      <trkpt lat="42.94112" lon="-0.32715">
        <ele>1919.89</ele>
        <time>2015-10-31T14:30:27Z</time>
      </trkpt>
      <trkpt lat="42.94106" lon="-0.32707">
        <ele>1919.89</ele>
        <time>2015-10-31T14:30:37Z</time>
      </trkpt>
      <trkpt lat="42.94097" lon="-0.32691">
        <ele>1922.29</ele>
        <time>2015-10-31T14:30:52Z</time>
      </trkpt>
      <trkpt lat="42.94094" lon="-0.32683">
        <ele>1922.77</ele>
        <time>2015-10-31T14:30:59Z</time>
      </trkpt>
      <trkpt lat="42.94092" lon="-0.3268">
        <ele>1923.25</ele>
        <time>2015-10-31T14:31:02Z</time>
      </trkpt>
      <trkpt lat="42.94097" lon="-0.32654">
        <ele>1927.58</ele>
        <time>2015-10-31T14:31:20Z</time>
      </trkpt>
      <trkpt lat="42.94094" lon="-0.32648">
        <ele>1927.58</ele>
        <time>2015-10-31T14:31:25Z</time>
      </trkpt>
      <trkpt lat="42.94082" lon="-0.3265">
        <ele>1930.46</ele>
        <time>2015-10-31T14:31:37Z</time>
      </trkpt>
      <trkpt lat="42.94071" lon="-0.32648">
        <ele>1932.39</ele>
        <time>2015-10-31T14:31:47Z</time>
      </trkpt>
      <trkpt lat="42.9405" lon="-0.3265">
        <ele>1935.75</ele>
        <time>2015-10-31T14:32:06Z</time>
      </trkpt>
      <trkpt lat="42.9403" lon="-0.32651">
        <ele>1939.12</ele>
        <time>2015-10-31T14:32:24Z</time>
      </trkpt>
      <trkpt lat="42.94011" lon="-0.3265">
        <ele>1942.48</ele>
        <time>2015-10-31T14:32:40Z</time>
      </trkpt>
      <trkpt lat="42.93995" lon="-0.32651">
        <ele>1944.88</ele>
        <time>2015-10-31T14:32:55Z</time>
      </trkpt>
      <trkpt lat="42.93991" lon="-0.32652">
        <ele>1945.36</ele>
        <time>2015-10-31T14:32:59Z</time>
      </trkpt>
      <trkpt lat="42.93983" lon="-0.32654">
        <ele>1947.29</ele>
        <time>2015-10-31T14:33:06Z</time>
      </trkpt>
      <trkpt lat="42.93975" lon="-0.32659">
        <ele>1948.25</ele>
        <time>2015-10-31T14:33:16Z</time>
      </trkpt>
      <trkpt lat="42.93969" lon="-0.32665">
        <ele>1949.69</ele>
        <time>2015-10-31T14:33:22Z</time>
      </trkpt>
      <trkpt lat="42.93951" lon="-0.3267">
        <ele>1952.09</ele>
        <time>2015-10-31T14:33:39Z</time>
      </trkpt>
      <trkpt lat="42.9393" lon="-0.32679">
        <ele>1954.02</ele>
        <time>2015-10-31T14:33:56Z</time>
      </trkpt>
      <trkpt lat="42.9391" lon="-0.32684">
        <ele>1957.86</ele>
        <time>2015-10-31T14:34:13Z</time>
      </trkpt>
      <trkpt lat="42.93905" lon="-0.32682">
        <ele>1960.27</ele>
        <time>2015-10-31T14:34:23Z</time>
      </trkpt>
      <trkpt lat="42.93896" lon="-0.32679">
        <ele>1963.15</ele>
        <time>2015-10-31T14:34:41Z</time>
      </trkpt>
      <trkpt lat="42.93895" lon="-0.32682">
        <ele>1964.59</ele>
        <time>2015-10-31T14:35:07Z</time>
      </trkpt>
      <trkpt lat="42.93895" lon="-0.32678">
        <ele>1960.75</ele>
        <time>2015-10-31T14:35:31Z</time>
      </trkpt>
      <trkpt lat="42.93896" lon="-0.32679">
        <ele>1962.19</ele>
        <time>2015-10-31T14:35:55Z</time>
      </trkpt>
      <trkpt lat="42.93895" lon="-0.32679">
        <ele>1961.71</ele>
        <time>2015-10-31T14:36:29Z</time>
      </trkpt>
      <trkpt lat="42.93896" lon="-0.3268">
        <ele>1960.75</ele>
        <time>2015-10-31T14:36:48Z</time>
      </trkpt>
      <trkpt lat="42.93896" lon="-0.32682">
        <ele>1963.15</ele>
        <time>2015-10-31T14:37:21Z</time>
      </trkpt>
      <trkpt lat="42.93897" lon="-0.32682">
        <ele>1967.48</ele>
        <time>2015-10-31T14:37:51Z</time>
      </trkpt>
      <trkpt lat="42.93892" lon="-0.32676">
        <ele>1964.11</ele>
        <time>2015-10-31T14:38:19Z</time>
      </trkpt>
      <trkpt lat="42.9388" lon="-0.32673">
        <ele>1968.92</ele>
        <time>2015-10-31T14:38:35Z</time>
      </trkpt>
      <trkpt lat="42.93872" lon="-0.32665">
        <ele>1971.8</ele>
        <time>2015-10-31T14:38:50Z</time>
      </trkpt>
      <trkpt lat="42.93864" lon="-0.32652">
        <ele>1974.69</ele>
        <time>2015-10-31T14:39:07Z</time>
      </trkpt>
      <trkpt lat="42.93863" lon="-0.32646">
        <ele>1976.61</ele>
        <time>2015-10-31T14:39:21Z</time>
      </trkpt>
      <trkpt lat="42.93863" lon="-0.32641">
        <ele>1977.57</ele>
        <time>2015-10-31T14:39:27Z</time>
      </trkpt>
      <trkpt lat="42.93862" lon="-0.32623">
        <ele>1977.09</ele>
        <time>2015-10-31T14:39:42Z</time>
      </trkpt>
      <trkpt lat="42.93865" lon="-0.32614">
        <ele>1977.57</ele>
        <time>2015-10-31T14:39:49Z</time>
      </trkpt>
      <trkpt lat="42.93869" lon="-0.32602">
        <ele>1980.45</ele>
        <time>2015-10-31T14:40:04Z</time>
      </trkpt>
      <trkpt lat="42.93868" lon="-0.326">
        <ele>1980.45</ele>
        <time>2015-10-31T14:40:06Z</time>
      </trkpt>
      <trkpt lat="42.93866" lon="-0.326">
        <ele>1980.93</ele>
        <time>2015-10-31T14:40:08Z</time>
      </trkpt>
      <trkpt lat="42.93864" lon="-0.32592">
        <ele>1981.41</ele>
        <time>2015-10-31T14:40:22Z</time>
      </trkpt>
      <trkpt lat="42.93862" lon="-0.32591">
        <ele>1979.01</ele>
        <time>2015-10-31T14:40:35Z</time>
      </trkpt>
      <trkpt lat="42.93864" lon="-0.32589">
        <ele>1978.05</ele>
        <time>2015-10-31T14:40:51Z</time>
      </trkpt>
      <trkpt lat="42.93864" lon="-0.32589">
        <ele>1978.53</ele>
        <time>2015-10-31T14:41:08Z</time>
      </trkpt>
      <trkpt lat="42.93865" lon="-0.32585">
        <ele>1978.05</ele>
        <time>2015-10-31T14:41:20Z</time>
      </trkpt>
      <trkpt lat="42.93867" lon="-0.32588">
        <ele>1978.53</ele>
        <time>2015-10-31T14:41:40Z</time>
      </trkpt>
      <trkpt lat="42.93863" lon="-0.32588">
        <ele>1978.05</ele>
        <time>2015-10-31T14:41:59Z</time>
      </trkpt>
      <trkpt lat="42.93866" lon="-0.32598">
        <ele>1979.97</ele>
        <time>2015-10-31T14:42:10Z</time>
      </trkpt>
      <trkpt lat="42.93867" lon="-0.32594">
        <ele>1978.05</ele>
        <time>2015-10-31T14:42:30Z</time>
      </trkpt>
      <trkpt lat="42.93867" lon="-0.32592">
        <ele>1977.57</ele>
        <time>2015-10-31T14:43:02Z</time>
      </trkpt>
      <trkpt lat="42.93868" lon="-0.32595">
        <ele>1976.13</ele>
        <time>2015-10-31T14:43:43Z</time>
      </trkpt>
      <trkpt lat="42.93867" lon="-0.32595">
        <ele>1977.09</ele>
        <time>2015-10-31T14:44:19Z</time>
      </trkpt>
      <trkpt lat="42.9387" lon="-0.32596">
        <ele>1973.72</ele>
        <time>2015-10-31T14:44:41Z</time>
      </trkpt>
      <trkpt lat="42.93867" lon="-0.32589">
        <ele>1976.13</ele>
        <time>2015-10-31T14:45:20Z</time>
      </trkpt>
      <trkpt lat="42.93866" lon="-0.32593">
        <ele>1977.57</ele>
        <time>2015-10-31T14:45:47Z</time>
      </trkpt>
      <trkpt lat="42.93866" lon="-0.32594">
        <ele>1977.09</ele>
        <time>2015-10-31T14:46:11Z</time>
      </trkpt>
      <trkpt lat="42.93865" lon="-0.32597">
        <ele>1978.53</ele>
        <time>2015-10-31T14:46:21Z</time>
      </trkpt>
      <trkpt lat="42.93868" lon="-0.326">
        <ele>1978.05</ele>
        <time>2015-10-31T14:46:34Z</time>
      </trkpt>
      <trkpt lat="42.93869" lon="-0.326">
        <ele>1976.13</ele>
        <time>2015-10-31T14:46:55Z</time>
      </trkpt>
      <trkpt lat="42.93871" lon="-0.32601">
        <ele>1975.17</ele>
        <time>2015-10-31T14:47:14Z</time>
      </trkpt>
      <trkpt lat="42.9387" lon="-0.32604">
        <ele>1976.13</ele>
        <time>2015-10-31T14:47:27Z</time>
      </trkpt>
      <trkpt lat="42.93871" lon="-0.32605">
        <ele>1976.13</ele>
        <time>2015-10-31T14:47:33Z</time>
      </trkpt>
      <trkpt lat="42.93871" lon="-0.32606">
        <ele>1976.61</ele>
        <time>2015-10-31T14:47:35Z</time>
      </trkpt>
      <trkpt lat="42.93872" lon="-0.32609">
        <ele>1976.61</ele>
        <time>2015-10-31T14:47:37Z</time>
      </trkpt>
      <trkpt lat="42.93861" lon="-0.32633">
        <ele>1977.09</ele>
        <time>2015-10-31T14:47:46Z</time>
      </trkpt>
      <trkpt lat="42.93878" lon="-0.32672">
        <ele>1972.76</ele>
        <time>2015-10-31T14:47:58Z</time>
      </trkpt>
      <trkpt lat="42.93913" lon="-0.32682">
        <ele>1961.23</ele>
        <time>2015-10-31T14:48:06Z</time>
      </trkpt>
      <trkpt lat="42.93977" lon="-0.32656">
        <ele>1949.21</ele>
        <time>2015-10-31T14:48:14Z</time>
      </trkpt>
      <trkpt lat="42.93985" lon="-0.32653">
        <ele>1947.77</ele>
        <time>2015-10-31T14:48:15Z</time>
      </trkpt>
      <trkpt lat="42.94052" lon="-0.32647">
        <ele>1935.27</ele>
        <time>2015-10-31T14:48:25Z</time>
      </trkpt>
      <trkpt lat="42.94071" lon="-0.32648">
        <ele>1931.43</ele>
        <time>2015-10-31T14:48:28Z</time>
      </trkpt>
      <trkpt lat="42.94105" lon="-0.32648">
        <ele>1924.22</ele>
        <time>2015-10-31T14:48:37Z</time>
      </trkpt>
      <trkpt lat="42.94119" lon="-0.32639">
        <ele>1923.25</ele>
        <time>2015-10-31T14:48:41Z</time>
      </trkpt>
      <trkpt lat="42.94129" lon="-0.32628">
        <ele>1922.77</ele>
        <time>2015-10-31T14:48:48Z</time>
      </trkpt>
      <trkpt lat="42.94131" lon="-0.32638">
        <ele>1921.33</ele>
        <time>2015-10-31T14:48:54Z</time>
      </trkpt>
      <trkpt lat="42.9412" lon="-0.32664">
        <ele>1919.41</ele>
        <time>2015-10-31T14:49:04Z</time>
      </trkpt>
      <trkpt lat="42.94111" lon="-0.32682">
        <ele>1917.97</ele>
        <time>2015-10-31T14:49:12Z</time>
      </trkpt>
      <trkpt lat="42.94119" lon="-0.32717">
        <ele>1916.04</ele>
        <time>2015-10-31T14:49:19Z</time>
      </trkpt>
      <trkpt lat="42.94123" lon="-0.3272">
        <ele>1915.08</ele>
        <time>2015-10-31T14:49:21Z</time>
      </trkpt>
      <trkpt lat="42.94155" lon="-0.32738">
        <ele>1905.95</ele>
        <time>2015-10-31T14:49:34Z</time>
      </trkpt>
      <trkpt lat="42.94175" lon="-0.32715">
        <ele>1899.22</ele>
        <time>2015-10-31T14:49:44Z</time>
      </trkpt>
      <trkpt lat="42.94194" lon="-0.32695">
        <ele>1892.49</ele>
        <time>2015-10-31T14:49:55Z</time>
      </trkpt>
      <trkpt lat="42.94227" lon="-0.32705">
        <ele>1880.48</ele>
        <time>2015-10-31T14:50:09Z</time>
      </trkpt>
      <trkpt lat="42.94245" lon="-0.32732">
        <ele>1873.75</ele>
        <time>2015-10-31T14:50:20Z</time>
      </trkpt>
      <trkpt lat="42.94258" lon="-0.32758">
        <ele>1866.06</ele>
        <time>2015-10-31T14:50:31Z</time>
      </trkpt>
      <trkpt lat="42.94264" lon="-0.32769">
        <ele>1864.13</ele>
        <time>2015-10-31T14:50:37Z</time>
      </trkpt>
      <trkpt lat="42.94265" lon="-0.32774">
        <ele>1863.17</ele>
        <time>2015-10-31T14:50:39Z</time>
      </trkpt>
      <trkpt lat="42.94268" lon="-0.32779">
        <ele>1862.21</ele>
        <time>2015-10-31T14:50:42Z</time>
      </trkpt>
      <trkpt lat="42.94277" lon="-0.32785">
        <ele>1859.33</ele>
        <time>2015-10-31T14:50:49Z</time>
      </trkpt>
      <trkpt lat="42.94281" lon="-0.32786">
        <ele>1857.89</ele>
        <time>2015-10-31T14:50:52Z</time>
      </trkpt>
      <trkpt lat="42.94297" lon="-0.32762">
        <ele>1850.19</ele>
        <time>2015-10-31T14:51:06Z</time>
      </trkpt>
      <trkpt lat="42.94301" lon="-0.32751">
        <ele>1846.83</ele>
        <time>2015-10-31T14:51:11Z</time>
      </trkpt>
      <trkpt lat="42.9431" lon="-0.32758">
        <ele>1845.39</ele>
        <time>2015-10-31T14:51:18Z</time>
      </trkpt>
      <trkpt lat="42.94312" lon="-0.32763">
        <ele>1844.91</ele>
        <time>2015-10-31T14:51:20Z</time>
      </trkpt>
      <trkpt lat="42.94321" lon="-0.32794">
        <ele>1840.1</ele>
        <time>2015-10-31T14:51:29Z</time>
      </trkpt>
      <trkpt lat="42.94326" lon="-0.32808">
        <ele>1837.7</ele>
        <time>2015-10-31T14:51:32Z</time>
      </trkpt>
      <trkpt lat="42.94325" lon="-0.32811">
        <ele>1836.26</ele>
        <time>2015-10-31T14:51:34Z</time>
      </trkpt>
      <trkpt lat="42.94327" lon="-0.32802">
        <ele>1834.33</ele>
        <time>2015-10-31T14:51:38Z</time>
      </trkpt>
      <trkpt lat="42.94342" lon="-0.32775">
        <ele>1829.05</ele>
        <time>2015-10-31T14:51:49Z</time>
      </trkpt>
      <trkpt lat="42.94356" lon="-0.32755">
        <ele>1824.24</ele>
        <time>2015-10-31T14:51:59Z</time>
      </trkpt>
      <trkpt lat="42.94362" lon="-0.32795">
        <ele>1820.87</ele>
        <time>2015-10-31T14:52:12Z</time>
      </trkpt>
      <trkpt lat="42.94376" lon="-0.32824">
        <ele>1815.11</ele>
        <time>2015-10-31T14:52:22Z</time>
      </trkpt>
      <trkpt lat="42.94397" lon="-0.32849">
        <ele>1807.9</ele>
        <time>2015-10-31T14:52:34Z</time>
      </trkpt>
      <trkpt lat="42.94401" lon="-0.32853">
        <ele>1806.94</ele>
        <time>2015-10-31T14:52:36Z</time>
      </trkpt>
      <trkpt lat="42.94406" lon="-0.32846">
        <ele>1805.01</ele>
        <time>2015-10-31T14:52:40Z</time>
      </trkpt>
      <trkpt lat="42.94415" lon="-0.32817">
        <ele>1797.32</ele>
        <time>2015-10-31T14:52:53Z</time>
      </trkpt>
      <trkpt lat="42.9442" lon="-0.32824">
        <ele>1792.52</ele>
        <time>2015-10-31T14:53:04Z</time>
      </trkpt>
      <trkpt lat="42.9442" lon="-0.32825">
        <ele>1792.03</ele>
        <time>2015-10-31T14:53:19Z</time>
      </trkpt>
      <trkpt lat="42.94421" lon="-0.32825">
        <ele>1792.03</ele>
        <time>2015-10-31T14:53:21Z</time>
      </trkpt>
      <trkpt lat="42.94427" lon="-0.32813">
        <ele>1794.92</ele>
        <time>2015-10-31T14:53:36Z</time>
      </trkpt>
      <trkpt lat="42.94427" lon="-0.32813">
        <ele>1794.92</ele>
        <time>2015-10-31T14:53:40Z</time>
      </trkpt>
      <trkpt lat="42.94424" lon="-0.32817">
        <ele>1794.92</ele>
        <time>2015-10-31T14:53:44Z</time>
      </trkpt>
      <trkpt lat="42.94417" lon="-0.32833">
        <ele>1796.36</ele>
        <time>2015-10-31T14:54:01Z</time>
      </trkpt>
      <trkpt lat="42.94415" lon="-0.3284">
        <ele>1798.76</ele>
        <time>2015-10-31T14:54:14Z</time>
      </trkpt>
      <trkpt lat="42.94417" lon="-0.32846">
        <ele>1798.28</ele>
        <time>2015-10-31T14:54:24Z</time>
      </trkpt>
      <trkpt lat="42.94421" lon="-0.32855">
        <ele>1796.84</ele>
        <time>2015-10-31T14:54:34Z</time>
      </trkpt>
      <trkpt lat="42.94424" lon="-0.32864">
        <ele>1795.4</ele>
        <time>2015-10-31T14:54:47Z</time>
      </trkpt>
      <trkpt lat="42.94425" lon="-0.32872">
        <ele>1795.88</ele>
        <time>2015-10-31T14:54:58Z</time>
      </trkpt>
      <trkpt lat="42.94426" lon="-0.32876">
        <ele>1793.96</ele>
        <time>2015-10-31T14:55:09Z</time>
      </trkpt>
      <trkpt lat="42.94426" lon="-0.32883">
        <ele>1794.44</ele>
        <time>2015-10-31T14:55:15Z</time>
      </trkpt>
      <trkpt lat="42.94426" lon="-0.32895">
        <ele>1793.48</ele>
        <time>2015-10-31T14:55:26Z</time>
      </trkpt>
      <trkpt lat="42.94442" lon="-0.32915">
        <ele>1789.15</ele>
        <time>2015-10-31T14:55:39Z</time>
      </trkpt>
      <trkpt lat="42.94451" lon="-0.32948">
        <ele>1784.82</ele>
        <time>2015-10-31T14:55:51Z</time>
      </trkpt>
      <trkpt lat="42.94452" lon="-0.3295">
        <ele>1784.34</ele>
        <time>2015-10-31T14:55:52Z</time>
      </trkpt>
      <trkpt lat="42.94463" lon="-0.32944">
        <ele>1780.98</ele>
        <time>2015-10-31T14:55:58Z</time>
      </trkpt>
      <trkpt lat="42.94505" lon="-0.32889">
        <ele>1761.75</ele>
        <time>2015-10-31T14:56:17Z</time>
      </trkpt>
      <trkpt lat="42.9455" lon="-0.32816">
        <ele>1740.6</ele>
        <time>2015-10-31T14:56:34Z</time>
      </trkpt>
      <trkpt lat="42.94567" lon="-0.3277">
        <ele>1734.36</ele>
        <time>2015-10-31T14:56:40Z</time>
      </trkpt>
      <trkpt lat="42.9458" lon="-0.3272">
        <ele>1729.07</ele>
        <time>2015-10-31T14:56:47Z</time>
      </trkpt>
      <trkpt lat="42.94593" lon="-0.32732">
        <ele>1724.26</ele>
        <time>2015-10-31T14:56:54Z</time>
      </trkpt>
      <trkpt lat="42.94611" lon="-0.32718">
        <ele>1721.38</ele>
        <time>2015-10-31T14:56:59Z</time>
      </trkpt>
      <trkpt lat="42.94628" lon="-0.32692">
        <ele>1719.46</ele>
        <time>2015-10-31T14:57:05Z</time>
      </trkpt>
      <trkpt lat="42.9463" lon="-0.32697">
        <ele>1718.97</ele>
        <time>2015-10-31T14:57:06Z</time>
      </trkpt>
      <trkpt lat="42.94645" lon="-0.32725">
        <ele>1715.13</ele>
        <time>2015-10-31T14:57:13Z</time>
      </trkpt>
      <trkpt lat="42.94648" lon="-0.3272">
        <ele>1714.17</ele>
        <time>2015-10-31T14:57:14Z</time>
      </trkpt>
      <trkpt lat="42.94656" lon="-0.32706">
        <ele>1712.73</ele>
        <time>2015-10-31T14:57:17Z</time>
      </trkpt>
      <trkpt lat="42.94673" lon="-0.327">
        <ele>1710.32</ele>
        <time>2015-10-31T14:57:24Z</time>
      </trkpt>
      <trkpt lat="42.94673" lon="-0.32719">
        <ele>1707.92</ele>
        <time>2015-10-31T14:57:27Z</time>
      </trkpt>
      <trkpt lat="42.94691" lon="-0.32734">
        <ele>1702.63</ele>
        <time>2015-10-31T14:57:34Z</time>
      </trkpt>
      <trkpt lat="42.94693" lon="-0.3273">
        <ele>1701.67</ele>
        <time>2015-10-31T14:57:35Z</time>
      </trkpt>
      <trkpt lat="42.94711" lon="-0.327">
        <ele>1698.79</ele>
        <time>2015-10-31T14:57:42Z</time>
      </trkpt>
      <trkpt lat="42.9474" lon="-0.32694">
        <ele>1693.98</ele>
        <time>2015-10-31T14:57:51Z</time>
      </trkpt>
      <trkpt lat="42.94744" lon="-0.32692">
        <ele>1693.02</ele>
        <time>2015-10-31T14:57:53Z</time>
      </trkpt>
      <trkpt lat="42.9475" lon="-0.32695">
        <ele>1690.14</ele>
        <time>2015-10-31T14:57:57Z</time>
      </trkpt>
      <trkpt lat="42.94759" lon="-0.32698">
        <ele>1687.25</ele>
        <time>2015-10-31T14:58:01Z</time>
      </trkpt>
      <trkpt lat="42.94766" lon="-0.32698">
        <ele>1686.29</ele>
        <time>2015-10-31T14:58:04Z</time>
      </trkpt>
      <trkpt lat="42.94774" lon="-0.32717">
        <ele>1683.89</ele>
        <time>2015-10-31T14:58:10Z</time>
      </trkpt>
      <trkpt lat="42.94773" lon="-0.32726">
        <ele>1683.41</ele>
        <time>2015-10-31T14:58:12Z</time>
      </trkpt>
      <trkpt lat="42.94786" lon="-0.32711">
        <ele>1681</ele>
        <time>2015-10-31T14:58:18Z</time>
      </trkpt>
      <trkpt lat="42.94797" lon="-0.32726">
        <ele>1677.64</ele>
        <time>2015-10-31T14:58:23Z</time>
      </trkpt>
      <trkpt lat="42.94796" lon="-0.32748">
        <ele>1676.68</ele>
        <time>2015-10-31T14:58:28Z</time>
      </trkpt>
      <trkpt lat="42.94818" lon="-0.32738">
        <ele>1671.87</ele>
        <time>2015-10-31T14:58:34Z</time>
      </trkpt>
      <trkpt lat="42.9482" lon="-0.32733">
        <ele>1670.91</ele>
        <time>2015-10-31T14:58:35Z</time>
      </trkpt>
      <trkpt lat="42.94829" lon="-0.32701">
        <ele>1668.02</ele>
        <time>2015-10-31T14:58:44Z</time>
      </trkpt>
      <trkpt lat="42.9484" lon="-0.32707">
        <ele>1666.1</ele>
        <time>2015-10-31T14:58:50Z</time>
      </trkpt>
      <trkpt lat="42.94842" lon="-0.32724">
        <ele>1665.14</ele>
        <time>2015-10-31T14:58:53Z</time>
      </trkpt>
      <trkpt lat="42.94861" lon="-0.32718">
        <ele>1660.81</ele>
        <time>2015-10-31T14:58:59Z</time>
      </trkpt>
      <trkpt lat="42.94875" lon="-0.32706">
        <ele>1657.45</ele>
        <time>2015-10-31T14:59:07Z</time>
      </trkpt>
      <trkpt lat="42.94888" lon="-0.32703">
        <ele>1653.12</ele>
        <time>2015-10-31T14:59:15Z</time>
      </trkpt>
      <trkpt lat="42.94895" lon="-0.32707">
        <ele>1651.68</ele>
        <time>2015-10-31T14:59:19Z</time>
      </trkpt>
      <trkpt lat="42.94906" lon="-0.32737">
        <ele>1649.28</ele>
        <time>2015-10-31T14:59:28Z</time>
      </trkpt>
      <trkpt lat="42.94916" lon="-0.3274">
        <ele>1647.36</ele>
        <time>2015-10-31T14:59:33Z</time>
      </trkpt>
      <trkpt lat="42.94924" lon="-0.32731">
        <ele>1644.95</ele>
        <time>2015-10-31T14:59:37Z</time>
      </trkpt>
      <trkpt lat="42.94936" lon="-0.32731">
        <ele>1642.07</ele>
        <time>2015-10-31T14:59:44Z</time>
      </trkpt>
      <trkpt lat="42.94937" lon="-0.32764">
        <ele>1639.67</ele>
        <time>2015-10-31T14:59:53Z</time>
      </trkpt>
      <trkpt lat="42.94954" lon="-0.32763">
        <ele>1634.86</ele>
        <time>2015-10-31T15:00:00Z</time>
      </trkpt>
      <trkpt lat="42.94965" lon="-0.32758">
        <ele>1632.46</ele>
        <time>2015-10-31T15:00:05Z</time>
      </trkpt>
      <trkpt lat="42.94982" lon="-0.32766">
        <ele>1626.21</ele>
        <time>2015-10-31T15:00:13Z</time>
      </trkpt>
      <trkpt lat="42.94986" lon="-0.32757">
        <ele>1623.8</ele>
        <time>2015-10-31T15:00:17Z</time>
      </trkpt>
      <trkpt lat="42.94976" lon="-0.32732">
        <ele>1624.28</ele>
        <time>2015-10-31T15:00:31Z</time>
      </trkpt>
      <trkpt lat="42.94974" lon="-0.32728">
        <ele>1624.77</ele>
        <time>2015-10-31T15:00:36Z</time>
      </trkpt>
      <trkpt lat="42.94956" lon="-0.32694">
        <ele>1620.92</ele>
        <time>2015-10-31T15:00:46Z</time>
      </trkpt>
      <trkpt lat="42.94954" lon="-0.32688">
        <ele>1619.96</ele>
        <time>2015-10-31T15:00:47Z</time>
      </trkpt>
      <trkpt lat="42.94937" lon="-0.3264">
        <ele>1614.19</ele>
        <time>2015-10-31T15:00:53Z</time>
      </trkpt>
      <trkpt lat="42.94933" lon="-0.32623">
        <ele>1612.75</ele>
        <time>2015-10-31T15:00:55Z</time>
      </trkpt>
      <trkpt lat="42.94929" lon="-0.32606">
        <ele>1611.31</ele>
        <time>2015-10-31T15:00:57Z</time>
      </trkpt>
      <trkpt lat="42.94924" lon="-0.32562">
        <ele>1609.38</ele>
        <time>2015-10-31T15:01:02Z</time>
      </trkpt>
      <trkpt lat="42.94915" lon="-0.32507">
        <ele>1607.94</ele>
        <time>2015-10-31T15:01:13Z</time>
      </trkpt>
      <trkpt lat="42.94916" lon="-0.32479">
        <ele>1606.98</ele>
        <time>2015-10-31T15:01:20Z</time>
      </trkpt>
      <trkpt lat="42.94912" lon="-0.3246">
        <ele>1606.5</ele>
        <time>2015-10-31T15:01:26Z</time>
      </trkpt>
      <trkpt lat="42.94912" lon="-0.32428">
        <ele>1608.9</ele>
        <time>2015-10-31T15:01:37Z</time>
      </trkpt>
      <trkpt lat="42.94912" lon="-0.32417">
        <ele>1610.35</ele>
        <time>2015-10-31T15:01:43Z</time>
      </trkpt>
      <trkpt lat="42.94923" lon="-0.32414">
        <ele>1609.86</ele>
        <time>2015-10-31T15:01:49Z</time>
      </trkpt>
      <trkpt lat="42.94939" lon="-0.32426">
        <ele>1606.5</ele>
        <time>2015-10-31T15:01:55Z</time>
      </trkpt>
      <trkpt lat="42.94952" lon="-0.32429">
        <ele>1604.58</ele>
        <time>2015-10-31T15:01:58Z</time>
      </trkpt>
      <trkpt lat="42.94968" lon="-0.32436">
        <ele>1601.69</ele>
        <time>2015-10-31T15:02:02Z</time>
      </trkpt>
      <trkpt lat="42.94999" lon="-0.32449">
        <ele>1595.93</ele>
        <time>2015-10-31T15:02:10Z</time>
      </trkpt>
      <trkpt lat="42.9503" lon="-0.32467">
        <ele>1584.87</ele>
        <time>2015-10-31T15:02:22Z</time>
      </trkpt>
      <trkpt lat="42.9503" lon="-0.32467">
        <ele>1581.03</ele>
        <time>2015-10-31T15:02:35Z</time>
      </trkpt>
      <trkpt lat="42.9503" lon="-0.32474">
        <ele>1580.54</ele>
        <time>2015-10-31T15:02:38Z</time>
      </trkpt>
      <trkpt lat="42.95031" lon="-0.32498">
        <ele>1577.66</ele>
        <time>2015-10-31T15:02:42Z</time>
      </trkpt>
      <trkpt lat="42.95034" lon="-0.32546">
        <ele>1568.05</ele>
        <time>2015-10-31T15:02:51Z</time>
      </trkpt>
      <trkpt lat="42.95063" lon="-0.32615">
        <ele>1555.55</ele>
        <time>2015-10-31T15:03:02Z</time>
      </trkpt>
      <trkpt lat="42.95066" lon="-0.32621">
        <ele>1554.59</ele>
        <time>2015-10-31T15:03:03Z</time>
      </trkpt>
      <trkpt lat="42.95072" lon="-0.32634">
        <ele>1552.19</ele>
        <time>2015-10-31T15:03:05Z</time>
      </trkpt>
      <trkpt lat="42.95091" lon="-0.32665">
        <ele>1545.46</ele>
        <time>2015-10-31T15:03:11Z</time>
      </trkpt>
      <trkpt lat="42.95098" lon="-0.32682">
        <ele>1541.61</ele>
        <time>2015-10-31T15:03:15Z</time>
      </trkpt>
      <trkpt lat="42.95126" lon="-0.32698">
        <ele>1536.32</ele>
        <time>2015-10-31T15:03:23Z</time>
      </trkpt>
      <trkpt lat="42.95133" lon="-0.32719">
        <ele>1533.92</ele>
        <time>2015-10-31T15:03:29Z</time>
      </trkpt>
      <trkpt lat="42.95135" lon="-0.3276">
        <ele>1536.32</ele>
        <time>2015-10-31T15:03:41Z</time>
      </trkpt>
      <trkpt lat="42.9514" lon="-0.32782">
        <ele>1540.65</ele>
        <time>2015-10-31T15:03:50Z</time>
      </trkpt>
      <trkpt lat="42.95151" lon="-0.32791">
        <ele>1541.61</ele>
        <time>2015-10-31T15:03:56Z</time>
      </trkpt>
      <trkpt lat="42.95159" lon="-0.32801">
        <ele>1541.13</ele>
        <time>2015-10-31T15:04:01Z</time>
      </trkpt>
      <trkpt lat="42.95184" lon="-0.3282">
        <ele>1535.84</ele>
        <time>2015-10-31T15:04:13Z</time>
      </trkpt>
      <trkpt lat="42.95201" lon="-0.32826">
        <ele>1532.96</ele>
        <time>2015-10-31T15:04:18Z</time>
      </trkpt>
      <trkpt lat="42.95216" lon="-0.32849">
        <ele>1528.15</ele>
        <time>2015-10-31T15:04:28Z</time>
      </trkpt>
      <trkpt lat="42.95229" lon="-0.32849">
        <ele>1525.27</ele>
        <time>2015-10-31T15:04:33Z</time>
      </trkpt>
      <trkpt lat="42.95238" lon="-0.32853">
        <ele>1523.83</ele>
        <time>2015-10-31T15:04:37Z</time>
      </trkpt>
      <trkpt lat="42.95244" lon="-0.32888">
        <ele>1516.14</ele>
        <time>2015-10-31T15:04:47Z</time>
      </trkpt>
      <trkpt lat="42.95258" lon="-0.32907">
        <ele>1511.33</ele>
        <time>2015-10-31T15:04:56Z</time>
      </trkpt>
      <trkpt lat="42.95261" lon="-0.32913">
        <ele>1509.89</ele>
        <time>2015-10-31T15:04:59Z</time>
      </trkpt>
      <trkpt lat="42.95268" lon="-0.32916">
        <ele>1507</ele>
        <time>2015-10-31T15:05:03Z</time>
      </trkpt>
      <trkpt lat="42.95277" lon="-0.32934">
        <ele>1504.6</ele>
        <time>2015-10-31T15:05:16Z</time>
      </trkpt>
      <trkpt lat="42.9528" lon="-0.32939">
        <ele>1503.16</ele>
        <time>2015-10-31T15:05:20Z</time>
      </trkpt>
      <trkpt lat="42.95286" lon="-0.32952">
        <ele>1498.83</ele>
        <time>2015-10-31T15:05:27Z</time>
      </trkpt>
      <trkpt lat="42.95297" lon="-0.32976">
        <ele>1490.18</ele>
        <time>2015-10-31T15:05:40Z</time>
      </trkpt>
      <trkpt lat="42.95298" lon="-0.32978">
        <ele>1489.7</ele>
        <time>2015-10-31T15:05:41Z</time>
      </trkpt>
      <trkpt lat="42.95305" lon="-0.32976">
        <ele>1484.89</ele>
        <time>2015-10-31T15:05:47Z</time>
      </trkpt>
      <trkpt lat="42.95311" lon="-0.3297">
        <ele>1482.49</ele>
        <time>2015-10-31T15:05:51Z</time>
      </trkpt>
      <trkpt lat="42.95313" lon="-0.32974">
        <ele>1480.57</ele>
        <time>2015-10-31T15:05:54Z</time>
      </trkpt>
      <trkpt lat="42.95313" lon="-0.3299">
        <ele>1476.24</ele>
        <time>2015-10-31T15:06:05Z</time>
      </trkpt>
      <trkpt lat="42.95313" lon="-0.32991">
        <ele>1476.24</ele>
        <time>2015-10-31T15:06:06Z</time>
      </trkpt>
      <trkpt lat="42.95314" lon="-0.32993">
        <ele>1471.92</ele>
        <time>2015-10-31T15:06:17Z</time>
      </trkpt>
      <trkpt lat="42.95315" lon="-0.32993">
        <ele>1471.44</ele>
        <time>2015-10-31T15:06:20Z</time>
      </trkpt>
      <trkpt lat="42.95325" lon="-0.32981">
        <ele>1468.07</ele>
        <time>2015-10-31T15:06:28Z</time>
      </trkpt>
      <trkpt lat="42.95332" lon="-0.32976">
        <ele>1466.63</ele>
        <time>2015-10-31T15:06:33Z</time>
      </trkpt>
      <trkpt lat="42.95342" lon="-0.33001">
        <ele>1462.3</ele>
        <time>2015-10-31T15:06:44Z</time>
      </trkpt>
      <trkpt lat="42.95345" lon="-0.33009">
        <ele>1459.9</ele>
        <time>2015-10-31T15:06:51Z</time>
      </trkpt>
      <trkpt lat="42.95356" lon="-0.33022">
        <ele>1454.61</ele>
        <time>2015-10-31T15:07:03Z</time>
      </trkpt>
      <trkpt lat="42.95355" lon="-0.33019">
        <ele>1456.05</ele>
        <time>2015-10-31T15:07:18Z</time>
      </trkpt>
      <trkpt lat="42.95354" lon="-0.33019">
        <ele>1454.13</ele>
        <time>2015-10-31T15:07:37Z</time>
      </trkpt>
      <trkpt lat="42.95355" lon="-0.33021">
        <ele>1453.17</ele>
        <time>2015-10-31T15:07:40Z</time>
      </trkpt>
      <trkpt lat="42.95357" lon="-0.3303">
        <ele>1452.69</ele>
        <time>2015-10-31T15:07:44Z</time>
      </trkpt>
      <trkpt lat="42.95362" lon="-0.33041">
        <ele>1451.25</ele>
        <time>2015-10-31T15:07:50Z</time>
      </trkpt>
      <trkpt lat="42.95372" lon="-0.33039">
        <ele>1446.92</ele>
        <time>2015-10-31T15:07:58Z</time>
      </trkpt>
      <trkpt lat="42.95382" lon="-0.33048">
        <ele>1443.08</ele>
        <time>2015-10-31T15:08:06Z</time>
      </trkpt>
      <trkpt lat="42.95387" lon="-0.33049">
        <ele>1441.63</ele>
        <time>2015-10-31T15:08:14Z</time>
      </trkpt>
      <trkpt lat="42.95385" lon="-0.3305">
        <ele>1441.63</ele>
        <time>2015-10-31T15:08:27Z</time>
      </trkpt>
      <trkpt lat="42.95386" lon="-0.33046">
        <ele>1439.23</ele>
        <time>2015-10-31T15:08:38Z</time>
      </trkpt>
      <trkpt lat="42.95396" lon="-0.33049">
        <ele>1439.23</ele>
        <time>2015-10-31T15:08:43Z</time>
      </trkpt>
      <trkpt lat="42.95415" lon="-0.33054">
        <ele>1435.87</ele>
        <time>2015-10-31T15:08:50Z</time>
      </trkpt>
      <trkpt lat="42.95433" lon="-0.33019">
        <ele>1429.62</ele>
        <time>2015-10-31T15:08:59Z</time>
      </trkpt>
      <trkpt lat="42.95441" lon="-0.33014">
        <ele>1427.7</ele>
        <time>2015-10-31T15:09:04Z</time>
      </trkpt>
      <trkpt lat="42.95451" lon="-0.33039">
        <ele>1425.77</ele>
        <time>2015-10-31T15:09:16Z</time>
      </trkpt>
      <trkpt lat="42.95452" lon="-0.33038">
        <ele>1424.81</ele>
        <time>2015-10-31T15:09:37Z</time>
      </trkpt>
      <trkpt lat="42.95449" lon="-0.33032">
        <ele>1421.93</ele>
        <time>2015-10-31T15:09:58Z</time>
      </trkpt>
      <trkpt lat="42.95448" lon="-0.33032">
        <ele>1421.45</ele>
        <time>2015-10-31T15:10:06Z</time>
      </trkpt>
      <trkpt lat="42.95456" lon="-0.33038">
        <ele>1420.49</ele>
        <time>2015-10-31T15:10:10Z</time>
      </trkpt>
      <trkpt lat="42.95474" lon="-0.33041">
        <ele>1417.6</ele>
        <time>2015-10-31T15:10:15Z</time>
      </trkpt>
      <trkpt lat="42.95488" lon="-0.33045">
        <ele>1416.64</ele>
        <time>2015-10-31T15:10:18Z</time>
      </trkpt>
      <trkpt lat="42.95518" lon="-0.3304">
        <ele>1410.87</ele>
        <time>2015-10-31T15:10:27Z</time>
      </trkpt>
      <trkpt lat="42.95523" lon="-0.33045">
        <ele>1409.43</ele>
        <time>2015-10-31T15:10:36Z</time>
      </trkpt>
      <trkpt lat="42.95526" lon="-0.33075">
        <ele>1407.03</ele>
        <time>2015-10-31T15:10:46Z</time>
      </trkpt>
      <trkpt lat="42.95526" lon="-0.33106">
        <ele>1401.74</ele>
        <time>2015-10-31T15:10:54Z</time>
      </trkpt>
      <trkpt lat="42.95547" lon="-0.33126">
        <ele>1395.97</ele>
        <time>2015-10-31T15:11:01Z</time>
      </trkpt>
      <trkpt lat="42.9555" lon="-0.33122">
        <ele>1395.01</ele>
        <time>2015-10-31T15:11:02Z</time>
      </trkpt>
      <trkpt lat="42.95581" lon="-0.33072">
        <ele>1385.88</ele>
        <time>2015-10-31T15:11:15Z</time>
      </trkpt>
      <trkpt lat="42.9561" lon="-0.33044">
        <ele>1378.19</ele>
        <time>2015-10-31T15:11:27Z</time>
      </trkpt>
      <trkpt lat="42.95613" lon="-0.33044">
        <ele>1377.71</ele>
        <time>2015-10-31T15:11:28Z</time>
      </trkpt>
      <trkpt lat="42.9562" lon="-0.33032">
        <ele>1376.26</ele>
        <time>2015-10-31T15:11:32Z</time>
      </trkpt>
      <trkpt lat="42.95624" lon="-0.33013">
        <ele>1375.3</ele>
        <time>2015-10-31T15:11:37Z</time>
      </trkpt>
      <trkpt lat="42.9561" lon="-0.33001">
        <ele>1374.34</ele>
        <time>2015-10-31T15:11:42Z</time>
      </trkpt>
      <trkpt lat="42.95587" lon="-0.32966">
        <ele>1370.02</ele>
        <time>2015-10-31T15:11:48Z</time>
      </trkpt>
      <trkpt lat="42.95563" lon="-0.32941">
        <ele>1367.61</ele>
        <time>2015-10-31T15:11:52Z</time>
      </trkpt>
      <trkpt lat="42.95544" lon="-0.32906">
        <ele>1364.73</ele>
        <time>2015-10-31T15:11:58Z</time>
      </trkpt>
      <trkpt lat="42.95545" lon="-0.32877">
        <ele>1364.73</ele>
        <time>2015-10-31T15:12:06Z</time>
      </trkpt>
      <trkpt lat="42.95568" lon="-0.3287">
        <ele>1367.13</ele>
        <time>2015-10-31T15:12:15Z</time>
      </trkpt>
      <trkpt lat="42.95569" lon="-0.32839">
        <ele>1365.69</ele>
        <time>2015-10-31T15:12:24Z</time>
      </trkpt>
      <trkpt lat="42.95563" lon="-0.3283">
        <ele>1366.17</ele>
        <time>2015-10-31T15:12:27Z</time>
      </trkpt>
      <trkpt lat="42.95575" lon="-0.32811">
        <ele>1365.69</ele>
        <time>2015-10-31T15:12:33Z</time>
      </trkpt>
      <trkpt lat="42.95579" lon="-0.32811">
        <ele>1365.69</ele>
        <time>2015-10-31T15:12:34Z</time>
      </trkpt>
      <trkpt lat="42.95602" lon="-0.32829">
        <ele>1366.17</ele>
        <time>2015-10-31T15:12:42Z</time>
      </trkpt>
      <trkpt lat="42.95628" lon="-0.32851">
        <ele>1368.09</ele>
        <time>2015-10-31T15:12:52Z</time>
      </trkpt>
      <trkpt lat="42.95655" lon="-0.32873">
        <ele>1370.98</ele>
        <time>2015-10-31T15:13:03Z</time>
      </trkpt>
      <trkpt lat="42.9566" lon="-0.32872">
        <ele>1372.42</ele>
        <time>2015-10-31T15:13:16Z</time>
      </trkpt>
      <trkpt lat="42.95665" lon="-0.32875">
        <ele>1373.86</ele>
        <time>2015-10-31T15:13:23Z</time>
      </trkpt>
      <trkpt lat="42.95665" lon="-0.32882">
        <ele>1375.78</ele>
        <time>2015-10-31T15:13:34Z</time>
      </trkpt>
      <trkpt lat="42.95668" lon="-0.32877">
        <ele>1376.26</ele>
        <time>2015-10-31T15:13:36Z</time>
      </trkpt>
      <trkpt lat="42.95667" lon="-0.32841">
        <ele>1377.23</ele>
        <time>2015-10-31T15:13:49Z</time>
      </trkpt>
      <trkpt lat="42.9565" lon="-0.32812">
        <ele>1382.03</ele>
        <time>2015-10-31T15:14:06Z</time>
      </trkpt>
      <trkpt lat="42.9564" lon="-0.32786">
        <ele>1385.4</ele>
        <time>2015-10-31T15:14:20Z</time>
      </trkpt>
      <trkpt lat="42.95638" lon="-0.32767">
        <ele>1388.28</ele>
        <time>2015-10-31T15:14:29Z</time>
      </trkpt>
      <trkpt lat="42.95647" lon="-0.32758">
        <ele>1389.72</ele>
        <time>2015-10-31T15:14:36Z</time>
      </trkpt>
      <trkpt lat="42.95647" lon="-0.3272">
        <ele>1392.61</ele>
        <time>2015-10-31T15:14:54Z</time>
      </trkpt>
      <trkpt lat="42.95643" lon="-0.32692">
        <ele>1393.57</ele>
        <time>2015-10-31T15:15:07Z</time>
      </trkpt>
      <trkpt lat="42.95649" lon="-0.32668">
        <ele>1395.49</ele>
        <time>2015-10-31T15:15:21Z</time>
      </trkpt>
      <trkpt lat="42.95652" lon="-0.32668">
        <ele>1395.97</ele>
        <time>2015-10-31T15:15:23Z</time>
      </trkpt>
      <trkpt lat="42.95656" lon="-0.3267">
        <ele>1397.41</ele>
        <time>2015-10-31T15:15:26Z</time>
      </trkpt>
      <trkpt lat="42.95666" lon="-0.32703">
        <ele>1403.66</ele>
        <time>2015-10-31T15:15:44Z</time>
      </trkpt>
      <trkpt lat="42.95668" lon="-0.32708">
        <ele>1404.62</ele>
        <time>2015-10-31T15:15:47Z</time>
      </trkpt>
      <trkpt lat="42.95671" lon="-0.32714">
        <ele>1405.1</ele>
        <time>2015-10-31T15:15:51Z</time>
      </trkpt>
      <trkpt lat="42.95683" lon="-0.32735">
        <ele>1409.91</ele>
        <time>2015-10-31T15:16:08Z</time>
      </trkpt>
      <trkpt lat="42.95684" lon="-0.32728">
        <ele>1409.43</ele>
        <time>2015-10-31T15:16:16Z</time>
      </trkpt>
      <trkpt lat="42.95682" lon="-0.32716">
        <ele>1408.47</ele>
        <time>2015-10-31T15:16:23Z</time>
      </trkpt>
      <trkpt lat="42.95679" lon="-0.32709">
        <ele>1407.99</ele>
        <time>2015-10-31T15:16:35Z</time>
      </trkpt>
      <trkpt lat="42.95678" lon="-0.3271">
        <ele>1409.91</ele>
        <time>2015-10-31T15:16:56Z</time>
      </trkpt>
      <trkpt lat="42.95681" lon="-0.32705">
        <ele>1409.43</ele>
        <time>2015-10-31T15:17:20Z</time>
      </trkpt>
      <trkpt lat="42.95683" lon="-0.32705">
        <ele>1409.43</ele>
        <time>2015-10-31T15:17:24Z</time>
      </trkpt>
      <trkpt lat="42.95686" lon="-0.32725">
        <ele>1409.43</ele>
        <time>2015-10-31T15:17:32Z</time>
      </trkpt>
      <trkpt lat="42.95687" lon="-0.32741">
        <ele>1409.43</ele>
        <time>2015-10-31T15:17:38Z</time>
      </trkpt>
      <trkpt lat="42.95706" lon="-0.32762">
        <ele>1413.76</ele>
        <time>2015-10-31T15:17:52Z</time>
      </trkpt>
      <trkpt lat="42.95708" lon="-0.32763">
        <ele>1414.24</ele>
        <time>2015-10-31T15:17:53Z</time>
      </trkpt>
      <trkpt lat="42.95717" lon="-0.32744">
        <ele>1415.68</ele>
        <time>2015-10-31T15:18:06Z</time>
      </trkpt>
      <trkpt lat="42.95722" lon="-0.32711">
        <ele>1418.08</ele>
        <time>2015-10-31T15:18:22Z</time>
      </trkpt>
      <trkpt lat="42.95722" lon="-0.32707">
        <ele>1418.56</ele>
        <time>2015-10-31T15:18:24Z</time>
      </trkpt>
      <trkpt lat="42.95723" lon="-0.32704">
        <ele>1419.04</ele>
        <time>2015-10-31T15:18:26Z</time>
      </trkpt>
      <trkpt lat="42.95724" lon="-0.32702">
        <ele>1420</ele>
        <time>2015-10-31T15:18:37Z</time>
      </trkpt>
      <trkpt lat="42.95723" lon="-0.327">
        <ele>1422.41</ele>
        <time>2015-10-31T15:19:00Z</time>
      </trkpt>
      <trkpt lat="42.95726" lon="-0.32703">
        <ele>1422.89</ele>
        <time>2015-10-31T15:19:18Z</time>
      </trkpt>
      <trkpt lat="42.95725" lon="-0.32702">
        <ele>1421.93</ele>
        <time>2015-10-31T15:19:31Z</time>
      </trkpt>
      <trkpt lat="42.95726" lon="-0.32699">
        <ele>1420.97</ele>
        <time>2015-10-31T15:19:34Z</time>
      </trkpt>
      <trkpt lat="42.9573" lon="-0.32699">
        <ele>1420.49</ele>
        <time>2015-10-31T15:19:38Z</time>
      </trkpt>
      <trkpt lat="42.9574" lon="-0.32685">
        <ele>1421.45</ele>
        <time>2015-10-31T15:19:50Z</time>
      </trkpt>
      <trkpt lat="42.95742" lon="-0.32675">
        <ele>1423.85</ele>
        <time>2015-10-31T15:19:57Z</time>
      </trkpt>
      <trkpt lat="42.95743" lon="-0.3267">
        <ele>1426.25</ele>
        <time>2015-10-31T15:20:01Z</time>
      </trkpt>
      <trkpt lat="42.95741" lon="-0.32655">
        <ele>1432.02</ele>
        <time>2015-10-31T15:20:14Z</time>
      </trkpt>
      <trkpt lat="42.95751" lon="-0.32656">
        <ele>1436.83</ele>
        <time>2015-10-31T15:20:27Z</time>
      </trkpt>
      <trkpt lat="42.95753" lon="-0.32657">
        <ele>1438.27</ele>
        <time>2015-10-31T15:20:31Z</time>
      </trkpt>
      <trkpt lat="42.95764" lon="-0.32674">
        <ele>1445.48</ele>
        <time>2015-10-31T15:20:48Z</time>
      </trkpt>
      <trkpt lat="42.9577" lon="-0.3269">
        <ele>1449.81</ele>
        <time>2015-10-31T15:21:02Z</time>
      </trkpt>
      <trkpt lat="42.95776" lon="-0.32703">
        <ele>1451.73</ele>
        <time>2015-10-31T15:21:13Z</time>
      </trkpt>
      <trkpt lat="42.95791" lon="-0.32722">
        <ele>1452.69</ele>
        <time>2015-10-31T15:21:27Z</time>
      </trkpt>
      <trkpt lat="42.95793" lon="-0.32725">
        <ele>1452.69</ele>
        <time>2015-10-31T15:21:29Z</time>
      </trkpt>
      <trkpt lat="42.95805" lon="-0.32751">
        <ele>1459.9</ele>
        <time>2015-10-31T15:21:46Z</time>
      </trkpt>
      <trkpt lat="42.95821" lon="-0.32779">
        <ele>1462.78</ele>
        <time>2015-10-31T15:22:04Z</time>
      </trkpt>
      <trkpt lat="42.9584" lon="-0.32801">
        <ele>1460.86</ele>
        <time>2015-10-31T15:22:20Z</time>
      </trkpt>
      <trkpt lat="42.95863" lon="-0.32818">
        <ele>1457.5</ele>
        <time>2015-10-31T15:22:36Z</time>
      </trkpt>
      <trkpt lat="42.95865" lon="-0.32823">
        <ele>1457.02</ele>
        <time>2015-10-31T15:22:38Z</time>
      </trkpt>
      <trkpt lat="42.95865" lon="-0.32835">
        <ele>1455.09</ele>
        <time>2015-10-31T15:22:52Z</time>
      </trkpt>
      <trkpt lat="42.95866" lon="-0.32836">
        <ele>1454.61</ele>
        <time>2015-10-31T15:23:13Z</time>
      </trkpt>
      <trkpt lat="42.95864" lon="-0.32836">
        <ele>1454.61</ele>
        <time>2015-10-31T15:23:15Z</time>
      </trkpt>
      <trkpt lat="42.95868" lon="-0.32829">
        <ele>1453.65</ele>
        <time>2015-10-31T15:23:21Z</time>
      </trkpt>
      <trkpt lat="42.95876" lon="-0.32854">
        <ele>1452.21</ele>
        <time>2015-10-31T15:23:29Z</time>
      </trkpt>
      <trkpt lat="42.95906" lon="-0.32885">
        <ele>1448.84</ele>
        <time>2015-10-31T15:23:36Z</time>
      </trkpt>
      <trkpt lat="42.95927" lon="-0.329">
        <ele>1446.92</ele>
        <time>2015-10-31T15:23:40Z</time>
      </trkpt>
      <trkpt lat="42.95957" lon="-0.32907">
        <ele>1446.92</ele>
        <time>2015-10-31T15:23:46Z</time>
      </trkpt>
      <trkpt lat="42.95963" lon="-0.32904">
        <ele>1446.92</ele>
        <time>2015-10-31T15:23:50Z</time>
      </trkpt>
      <trkpt lat="42.95984" lon="-0.32902">
        <ele>1446.92</ele>
        <time>2015-10-31T15:24:04Z</time>
      </trkpt>
      <trkpt lat="42.96011" lon="-0.32913">
        <ele>1442.6</ele>
        <time>2015-10-31T15:24:13Z</time>
      </trkpt>
      <trkpt lat="42.96024" lon="-0.32916">
        <ele>1439.71</ele>
        <time>2015-10-31T15:24:19Z</time>
      </trkpt>
      <trkpt lat="42.96035" lon="-0.32933">
        <ele>1438.75</ele>
        <time>2015-10-31T15:24:26Z</time>
      </trkpt>
      <trkpt lat="42.96034" lon="-0.32932">
        <ele>1438.75</ele>
        <time>2015-10-31T15:24:28Z</time>
      </trkpt>
      <trkpt lat="42.96032" lon="-0.32928">
        <ele>1438.75</ele>
        <time>2015-10-31T15:24:32Z</time>
      </trkpt>
      <trkpt lat="42.96024" lon="-0.32928">
        <ele>1439.23</ele>
        <time>2015-10-31T15:24:37Z</time>
      </trkpt>
      <trkpt lat="42.96009" lon="-0.32935">
        <ele>1438.75</ele>
        <time>2015-10-31T15:24:45Z</time>
      </trkpt>
      <trkpt lat="42.95989" lon="-0.32931">
        <ele>1436.83</ele>
        <time>2015-10-31T15:24:54Z</time>
      </trkpt>
      <trkpt lat="42.95988" lon="-0.32933">
        <ele>1436.35</ele>
        <time>2015-10-31T15:24:56Z</time>
      </trkpt>
      <trkpt lat="42.95991" lon="-0.32935">
        <ele>1435.87</ele>
        <time>2015-10-31T15:25:00Z</time>
      </trkpt>
      <trkpt lat="42.95994" lon="-0.32938">
        <ele>1433.94</ele>
        <time>2015-10-31T15:25:06Z</time>
      </trkpt>
      <trkpt lat="42.95988" lon="-0.32946">
        <ele>1429.14</ele>
        <time>2015-10-31T15:25:20Z</time>
      </trkpt>
      <trkpt lat="42.95989" lon="-0.32948">
        <ele>1428.18</ele>
        <time>2015-10-31T15:25:23Z</time>
      </trkpt>
      <trkpt lat="42.95973" lon="-0.32949">
        <ele>1423.37</ele>
        <time>2015-10-31T15:25:34Z</time>
      </trkpt>
      <trkpt lat="42.95975" lon="-0.32952">
        <ele>1423.37</ele>
        <time>2015-10-31T15:25:47Z</time>
      </trkpt>
      <trkpt lat="42.95984" lon="-0.32958">
        <ele>1421.93</ele>
        <time>2015-10-31T15:25:57Z</time>
      </trkpt>
      <trkpt lat="42.95969" lon="-0.32969">
        <ele>1419.52</ele>
        <time>2015-10-31T15:26:08Z</time>
      </trkpt>
      <trkpt lat="42.95969" lon="-0.3297">
        <ele>1419.04</ele>
        <time>2015-10-31T15:26:11Z</time>
      </trkpt>
      <trkpt lat="42.95968" lon="-0.32972">
        <ele>1418.08</ele>
        <time>2015-10-31T15:26:15Z</time>
      </trkpt>
      <trkpt lat="42.95976" lon="-0.32977">
        <ele>1415.68</ele>
        <time>2015-10-31T15:26:21Z</time>
      </trkpt>
      <trkpt lat="42.95979" lon="-0.3298">
        <ele>1415.2</ele>
        <time>2015-10-31T15:26:25Z</time>
      </trkpt>
      <trkpt lat="42.95951" lon="-0.32991">
        <ele>1411.35</ele>
        <time>2015-10-31T15:26:37Z</time>
      </trkpt>
      <trkpt lat="42.95943" lon="-0.33008">
        <ele>1409.43</ele>
        <time>2015-10-31T15:26:45Z</time>
      </trkpt>
      <trkpt lat="42.95964" lon="-0.33026">
        <ele>1403.18</ele>
        <time>2015-10-31T15:26:57Z</time>
      </trkpt>
      <trkpt lat="42.95963" lon="-0.33026">
        <ele>1401.26</ele>
        <time>2015-10-31T15:27:02Z</time>
      </trkpt>
      <trkpt lat="42.95963" lon="-0.33032">
        <ele>1402.22</ele>
        <time>2015-10-31T15:27:13Z</time>
      </trkpt>
      <trkpt lat="42.95988" lon="-0.33041">
        <ele>1400.3</ele>
        <time>2015-10-31T15:27:23Z</time>
      </trkpt>
      <trkpt lat="42.96018" lon="-0.33071">
        <ele>1396.45</ele>
        <time>2015-10-31T15:27:33Z</time>
      </trkpt>
      <trkpt lat="42.96018" lon="-0.33076">
        <ele>1395.97</ele>
        <time>2015-10-31T15:27:34Z</time>
      </trkpt>
      <trkpt lat="42.96002" lon="-0.3309">
        <ele>1394.05</ele>
        <time>2015-10-31T15:27:38Z</time>
      </trkpt>
      <trkpt lat="42.95968" lon="-0.331">
        <ele>1390.68</ele>
        <time>2015-10-31T15:27:43Z</time>
      </trkpt>
      <trkpt lat="42.95912" lon="-0.33137">
        <ele>1386.84</ele>
        <time>2015-10-31T15:27:51Z</time>
      </trkpt>
      <trkpt lat="42.959" lon="-0.33152">
        <ele>1385.4</ele>
        <time>2015-10-31T15:27:55Z</time>
      </trkpt>
      <trkpt lat="42.95898" lon="-0.33163">
        <ele>1382.03</ele>
        <time>2015-10-31T15:28:02Z</time>
      </trkpt>
      <trkpt lat="42.95904" lon="-0.33175">
        <ele>1379.63</ele>
        <time>2015-10-31T15:28:11Z</time>
      </trkpt>
      <trkpt lat="42.95904" lon="-0.33176">
        <ele>1379.63</ele>
        <time>2015-10-31T15:28:12Z</time>
      </trkpt>
      <trkpt lat="42.95892" lon="-0.33183">
        <ele>1377.71</ele>
        <time>2015-10-31T15:28:22Z</time>
      </trkpt>
      <trkpt lat="42.95888" lon="-0.33183">
        <ele>1377.23</ele>
        <time>2015-10-31T15:28:28Z</time>
      </trkpt>
      <trkpt lat="42.95897" lon="-0.3318">
        <ele>1377.71</ele>
        <time>2015-10-31T15:28:38Z</time>
      </trkpt>
      <trkpt lat="42.95897" lon="-0.33181">
        <ele>1378.19</ele>
        <time>2015-10-31T15:28:40Z</time>
      </trkpt>
      <trkpt lat="42.95883" lon="-0.33192">
        <ele>1377.23</ele>
        <time>2015-10-31T15:28:52Z</time>
      </trkpt>
      <trkpt lat="42.95864" lon="-0.33189">
        <ele>1375.3</ele>
        <time>2015-10-31T15:29:03Z</time>
      </trkpt>
      <trkpt lat="42.95859" lon="-0.33193">
        <ele>1375.3</ele>
        <time>2015-10-31T15:29:08Z</time>
      </trkpt>
      <trkpt lat="42.95841" lon="-0.33185">
        <ele>1375.3</ele>
        <time>2015-10-31T15:29:14Z</time>
      </trkpt>
      <trkpt lat="42.95828" lon="-0.33183">
        <ele>1375.3</ele>
        <time>2015-10-31T15:29:18Z</time>
      </trkpt>
      <trkpt lat="42.95815" lon="-0.33175">
        <ele>1372.42</ele>
        <time>2015-10-31T15:29:28Z</time>
      </trkpt>
      <trkpt lat="42.9581" lon="-0.33173">
        <ele>1371.46</ele>
        <time>2015-10-31T15:29:39Z</time>
      </trkpt>
      <trkpt lat="42.95803" lon="-0.33177">
        <ele>1373.38</ele>
        <time>2015-10-31T15:29:50Z</time>
      </trkpt>
      <trkpt lat="42.95788" lon="-0.33188">
        <ele>1374.34</ele>
        <time>2015-10-31T15:30:01Z</time>
      </trkpt>
      <trkpt lat="42.9576" lon="-0.33207">
        <ele>1370.02</ele>
        <time>2015-10-31T15:30:12Z</time>
      </trkpt>
      <trkpt lat="42.95724" lon="-0.33236">
        <ele>1364.25</ele>
        <time>2015-10-31T15:30:25Z</time>
      </trkpt>
      <trkpt lat="42.95714" lon="-0.3325">
        <ele>1361.84</ele>
        <time>2015-10-31T15:30:30Z</time>
      </trkpt>
      <trkpt lat="42.95702" lon="-0.33269">
        <ele>1357.04</ele>
        <time>2015-10-31T15:30:36Z</time>
      </trkpt>
      <trkpt lat="42.95697" lon="-0.33278">
        <ele>1355.6</ele>
        <time>2015-10-31T15:30:38Z</time>
      </trkpt>
      <trkpt lat="42.957" lon="-0.33309">
        <ele>1352.71</ele>
        <time>2015-10-31T15:30:46Z</time>
      </trkpt>
      <trkpt lat="42.95703" lon="-0.33314">
        <ele>1352.23</ele>
        <time>2015-10-31T15:30:47Z</time>
      </trkpt>
      <trkpt lat="42.9572" lon="-0.33341">
        <ele>1349.83</ele>
        <time>2015-10-31T15:30:52Z</time>
      </trkpt>
      <trkpt lat="42.95752" lon="-0.33346">
        <ele>1345.98</ele>
        <time>2015-10-31T15:30:59Z</time>
      </trkpt>
      <trkpt lat="42.95752" lon="-0.33339">
        <ele>1345.5</ele>
        <time>2015-10-31T15:31:00Z</time>
      </trkpt>
      <trkpt lat="42.95763" lon="-0.333">
        <ele>1343.1</ele>
        <time>2015-10-31T15:31:06Z</time>
      </trkpt>
      <trkpt lat="42.95771" lon="-0.33291">
        <ele>1342.62</ele>
        <time>2015-10-31T15:31:08Z</time>
      </trkpt>
      <trkpt lat="42.95807" lon="-0.33247">
        <ele>1343.58</ele>
        <time>2015-10-31T15:31:21Z</time>
      </trkpt>
      <trkpt lat="42.95834" lon="-0.33233">
        <ele>1345.5</ele>
        <time>2015-10-31T15:31:32Z</time>
      </trkpt>
      <trkpt lat="42.95853" lon="-0.3325">
        <ele>1348.87</ele>
        <time>2015-10-31T15:31:42Z</time>
      </trkpt>
      <trkpt lat="42.95861" lon="-0.33258">
        <ele>1350.79</ele>
        <time>2015-10-31T15:31:53Z</time>
      </trkpt>
      <trkpt lat="42.95872" lon="-0.33264">
        <ele>1352.71</ele>
        <time>2015-10-31T15:32:02Z</time>
      </trkpt>
      <trkpt lat="42.95886" lon="-0.33267">
        <ele>1353.19</ele>
        <time>2015-10-31T15:32:10Z</time>
      </trkpt>
      <trkpt lat="42.95912" lon="-0.33262">
        <ele>1353.67</ele>
        <time>2015-10-31T15:32:24Z</time>
      </trkpt>
      <trkpt lat="42.95916" lon="-0.33261">
        <ele>1354.15</ele>
        <time>2015-10-31T15:32:27Z</time>
      </trkpt>
      <trkpt lat="42.95919" lon="-0.33258">
        <ele>1353.19</ele>
        <time>2015-10-31T15:32:37Z</time>
      </trkpt>
      <trkpt lat="42.9592" lon="-0.33259">
        <ele>1353.19</ele>
        <time>2015-10-31T15:33:03Z</time>
      </trkpt>
      <trkpt lat="42.95918" lon="-0.33262">
        <ele>1353.67</ele>
        <time>2015-10-31T15:33:27Z</time>
      </trkpt>
      <trkpt lat="42.95918" lon="-0.33261">
        <ele>1353.19</ele>
        <time>2015-10-31T15:33:39Z</time>
      </trkpt>
      <trkpt lat="42.95911" lon="-0.33263">
        <ele>1353.19</ele>
        <time>2015-10-31T15:33:43Z</time>
      </trkpt>
      <trkpt lat="42.95879" lon="-0.33267">
        <ele>1350.79</ele>
        <time>2015-10-31T15:33:56Z</time>
      </trkpt>
      <trkpt lat="42.95877" lon="-0.33267">
        <ele>1350.79</ele>
        <time>2015-10-31T15:33:57Z</time>
      </trkpt>
      <trkpt lat="42.95873" lon="-0.3326">
        <ele>1347.43</ele>
        <time>2015-10-31T15:34:07Z</time>
      </trkpt>
      <trkpt lat="42.95858" lon="-0.33258">
        <ele>1345.98</ele>
        <time>2015-10-31T15:34:19Z</time>
      </trkpt>
      <trkpt lat="42.95855" lon="-0.33254">
        <ele>1345.98</ele>
        <time>2015-10-31T15:34:23Z</time>
      </trkpt>
      <trkpt lat="42.95846" lon="-0.33243">
        <ele>1344.06</ele>
        <time>2015-10-31T15:34:35Z</time>
      </trkpt>
      <trkpt lat="42.95846" lon="-0.33243">
        <ele>1342.62</ele>
        <time>2015-10-31T15:34:49Z</time>
      </trkpt>
      <trkpt lat="42.95847" lon="-0.33241">
        <ele>1341.66</ele>
        <time>2015-10-31T15:34:59Z</time>
      </trkpt>
      <trkpt lat="42.95848" lon="-0.33241">
        <ele>1340.7</ele>
        <time>2015-10-31T15:35:17Z</time>
      </trkpt>
      <trkpt lat="42.95848" lon="-0.33241">
        <ele>1340.7</ele>
        <time>2015-10-31T15:35:18Z</time>
      </trkpt>
      <trkpt lat="42.95833" lon="-0.33239">
        <ele>1341.18</ele>
        <time>2015-10-31T15:35:24Z</time>
      </trkpt>
      <trkpt lat="42.95813" lon="-0.33269">
        <ele>1338.29</ele>
        <time>2015-10-31T15:35:32Z</time>
      </trkpt>
      <trkpt lat="42.95853" lon="-0.33296">
        <ele>1337.33</ele>
        <time>2015-10-31T15:35:41Z</time>
      </trkpt>
      <trkpt lat="42.95875" lon="-0.33297">
        <ele>1337.33</ele>
        <time>2015-10-31T15:35:45Z</time>
      </trkpt>
      <trkpt lat="42.95902" lon="-0.33293">
        <ele>1337.81</ele>
        <time>2015-10-31T15:35:50Z</time>
      </trkpt>
      <trkpt lat="42.95923" lon="-0.33292">
        <ele>1337.33</ele>
        <time>2015-10-31T15:35:54Z</time>
      </trkpt>
      <trkpt lat="42.95953" lon="-0.33301">
        <ele>1336.85</ele>
        <time>2015-10-31T15:36:00Z</time>
      </trkpt>
      <trkpt lat="42.95976" lon="-0.33309">
        <ele>1336.37</ele>
        <time>2015-10-31T15:36:06Z</time>
      </trkpt>
      <trkpt lat="42.96001" lon="-0.33328">
        <ele>1335.41</ele>
        <time>2015-10-31T15:36:15Z</time>
      </trkpt>
      <trkpt lat="42.96001" lon="-0.33331">
        <ele>1333.49</ele>
        <time>2015-10-31T15:36:30Z</time>
      </trkpt>
      <trkpt lat="42.96002" lon="-0.3333">
        <ele>1332.52</ele>
        <time>2015-10-31T15:36:46Z</time>
      </trkpt>
      <trkpt lat="42.96003" lon="-0.33332">
        <ele>1331.08</ele>
        <time>2015-10-31T15:37:01Z</time>
      </trkpt>
      <trkpt lat="42.96004" lon="-0.33333">
        <ele>1330.12</ele>
        <time>2015-10-31T15:37:23Z</time>
      </trkpt>
      <trkpt lat="42.96002" lon="-0.33335">
        <ele>1331.08</ele>
        <time>2015-10-31T15:37:34Z</time>
      </trkpt>
      <trkpt lat="42.96003" lon="-0.33337">
        <ele>1330.12</ele>
        <time>2015-10-31T15:37:54Z</time>
      </trkpt>
      <trkpt lat="42.96003" lon="-0.3334">
        <ele>1329.16</ele>
        <time>2015-10-31T15:38:21Z</time>
      </trkpt>
      <trkpt lat="42.96004" lon="-0.3334">
        <ele>1327.24</ele>
        <time>2015-10-31T15:38:38Z</time>
      </trkpt>
    </trkseg>
  </trk>
</gpx>